<?xml version="1.0" encoding="UTF-8" standalone="no" ?>
<gpx xmlns="http://www.topografix.com/GPX/1/1" xmlns:xsi="http://www.w3.org/2001/XMLSchema-instance" xsi:schemaLocation="http://www.topografix.com/GPX/1/1 http://www.topografix.com/GPX/1/1/gpx.xsd" version="1.1" creator="VisuGPX - https://www.visugpx.com">
  <metadata>
    <name>La Montagnhard 2021  112 km sur TraceDeTrail.fr</name>
  </metadata>
  <trk>
    <name><![CDATA[La Montagnhard 2021  112 km sur TraceDeTrail.fr]]></name>
    <trkseg>
      <trkpt lat="45.82138" lon="6.72859">
        <ele>1173</ele>
        <time>2000-01-01T04:39:51.000Z</time>
      </trkpt>
      <trkpt lat="45.82148" lon="6.72909">
        <ele>1178</ele>
        <time>2000-01-01T04:40:01.000Z</time>
      </trkpt>
      <trkpt lat="45.82161" lon="6.72973">
        <ele>1186</ele>
        <time>2000-01-01T04:40:11.000Z</time>
      </trkpt>
      <trkpt lat="45.8216" lon="6.73012">
        <ele>1190</ele>
        <time>2000-01-01T04:40:21.000Z</time>
      </trkpt>
      <trkpt lat="45.8218" lon="6.73045">
        <ele>1195</ele>
        <time>2000-01-01T04:40:31.000Z</time>
      </trkpt>
      <trkpt lat="45.82203" lon="6.73058">
        <ele>1198</ele>
        <time>2000-01-01T04:40:41.000Z</time>
      </trkpt>
      <trkpt lat="45.82228" lon="6.73072">
        <ele>1201</ele>
        <time>2000-01-01T04:40:51.000Z</time>
      </trkpt>
      <trkpt lat="45.82255" lon="6.73075">
        <ele>1201</ele>
        <time>2000-01-01T04:41:01.000Z</time>
      </trkpt>
      <trkpt lat="45.82292" lon="6.73079">
        <ele>1202</ele>
        <time>2000-01-01T04:41:11.000Z</time>
      </trkpt>
      <trkpt lat="45.82282" lon="6.73115">
        <ele>1207</ele>
        <time>2000-01-01T04:41:21.000Z</time>
      </trkpt>
      <trkpt lat="45.82312" lon="6.73118">
        <ele>1208</ele>
        <time>2000-01-01T04:41:31.000Z</time>
      </trkpt>
      <trkpt lat="45.82368" lon="6.73123">
        <ele>1210</ele>
        <time>2000-01-01T04:41:41.000Z</time>
      </trkpt>
      <trkpt lat="45.82401" lon="6.73134">
        <ele>1212</ele>
        <time>2000-01-01T04:41:51.000Z</time>
      </trkpt>
      <trkpt lat="45.82433" lon="6.73146">
        <ele>1215</ele>
        <time>2000-01-01T04:42:01.000Z</time>
      </trkpt>
      <trkpt lat="45.82484" lon="6.73163">
        <ele>1214</ele>
        <time>2000-01-01T04:42:11.000Z</time>
      </trkpt>
      <trkpt lat="45.82524" lon="6.73162">
        <ele>1214</ele>
        <time>2000-01-01T04:42:21.000Z</time>
      </trkpt>
      <trkpt lat="45.82567" lon="6.73175">
        <ele>1222</ele>
        <time>2000-01-01T04:42:31.000Z</time>
      </trkpt>
      <trkpt lat="45.82587" lon="6.73204">
        <ele>1223</ele>
        <time>2000-01-01T04:42:41.000Z</time>
      </trkpt>
      <trkpt lat="45.82616" lon="6.7321">
        <ele>1223</ele>
        <time>2000-01-01T04:42:51.000Z</time>
      </trkpt>
      <trkpt lat="45.82665" lon="6.73219">
        <ele>1223</ele>
        <time>2000-01-01T04:43:01.000Z</time>
      </trkpt>
      <trkpt lat="45.82699" lon="6.73231">
        <ele>1227</ele>
        <time>2000-01-01T04:43:11.000Z</time>
      </trkpt>
      <trkpt lat="45.82733" lon="6.73244">
        <ele>1235</ele>
        <time>2000-01-01T04:43:21.000Z</time>
      </trkpt>
      <trkpt lat="45.828" lon="6.73268">
        <ele>1240</ele>
        <time>2000-01-01T04:43:31.000Z</time>
      </trkpt>
      <trkpt lat="45.82821" lon="6.73304">
        <ele>1241</ele>
        <time>2000-01-01T04:43:41.000Z</time>
      </trkpt>
      <trkpt lat="45.82842" lon="6.7334">
        <ele>1242</ele>
        <time>2000-01-01T04:43:51.000Z</time>
      </trkpt>
      <trkpt lat="45.8287" lon="6.73387">
        <ele>1258</ele>
        <time>2000-01-01T04:44:01.000Z</time>
      </trkpt>
      <trkpt lat="45.82842" lon="6.73405">
        <ele>1271</ele>
        <time>2000-01-01T04:44:11.000Z</time>
      </trkpt>
      <trkpt lat="45.82869" lon="6.73428">
        <ele>1280</ele>
        <time>2000-01-01T04:44:21.000Z</time>
      </trkpt>
      <trkpt lat="45.8284" lon="6.73449">
        <ele>1291</ele>
        <time>2000-01-01T04:44:31.000Z</time>
      </trkpt>
      <trkpt lat="45.8281" lon="6.73445">
        <ele>1297</ele>
        <time>2000-01-01T04:44:41.000Z</time>
      </trkpt>
      <trkpt lat="45.82758" lon="6.73438">
        <ele>1308</ele>
        <time>2000-01-01T04:44:51.000Z</time>
      </trkpt>
      <trkpt lat="45.82734" lon="6.73418">
        <ele>1319</ele>
        <time>2000-01-01T04:45:01.000Z</time>
      </trkpt>
      <trkpt lat="45.82695" lon="6.73444">
        <ele>1339</ele>
        <time>2000-01-01T04:45:11.000Z</time>
      </trkpt>
      <trkpt lat="45.82712" lon="6.73472">
        <ele>1345</ele>
        <time>2000-01-01T04:45:21.000Z</time>
      </trkpt>
      <trkpt lat="45.82733" lon="6.73506">
        <ele>1350</ele>
        <time>2000-01-01T04:45:31.000Z</time>
      </trkpt>
      <trkpt lat="45.82696" lon="6.73525">
        <ele>1373</ele>
        <time>2000-01-01T04:45:41.000Z</time>
      </trkpt>
      <trkpt lat="45.82714" lon="6.73556">
        <ele>1380</ele>
        <time>2000-01-01T04:45:51.000Z</time>
      </trkpt>
      <trkpt lat="45.82742" lon="6.73604">
        <ele>1391</ele>
        <time>2000-01-01T04:46:01.000Z</time>
      </trkpt>
      <trkpt lat="45.82715" lon="6.73604">
        <ele>1401</ele>
        <time>2000-01-01T04:46:11.000Z</time>
      </trkpt>
      <trkpt lat="45.82679" lon="6.73604">
        <ele>1408</ele>
        <time>2000-01-01T04:46:21.000Z</time>
      </trkpt>
      <trkpt lat="45.82706" lon="6.73655">
        <ele>1419</ele>
        <time>2000-01-01T04:46:31.000Z</time>
      </trkpt>
      <trkpt lat="45.82683" lon="6.73656">
        <ele>1421</ele>
        <time>2000-01-01T04:46:41.000Z</time>
      </trkpt>
      <trkpt lat="45.8267" lon="6.73664">
        <ele>1424.5</ele>
        <time>2000-01-01T04:46:51.000Z</time>
      </trkpt>
      <trkpt lat="45.82677" lon="6.73699">
        <ele>1432</ele>
        <time>2000-01-01T04:47:01.000Z</time>
      </trkpt>
      <trkpt lat="45.82703" lon="6.73712">
        <ele>1440</ele>
        <time>2000-01-01T04:47:11.000Z</time>
      </trkpt>
      <trkpt lat="45.82686" lon="6.73736">
        <ele>1443</ele>
        <time>2000-01-01T04:47:21.000Z</time>
      </trkpt>
      <trkpt lat="45.82701" lon="6.73763">
        <ele>1455</ele>
        <time>2000-01-01T04:47:31.000Z</time>
      </trkpt>
      <trkpt lat="45.82718" lon="6.73791">
        <ele>1465</ele>
        <time>2000-01-01T04:47:41.000Z</time>
      </trkpt>
      <trkpt lat="45.82699" lon="6.73815">
        <ele>1466</ele>
        <time>2000-01-01T04:47:51.000Z</time>
      </trkpt>
      <trkpt lat="45.82711" lon="6.73839">
        <ele>1474</ele>
        <time>2000-01-01T04:48:01.000Z</time>
      </trkpt>
      <trkpt lat="45.82709" lon="6.73867">
        <ele>1477</ele>
        <time>2000-01-01T04:48:11.000Z</time>
      </trkpt>
      <trkpt lat="45.82722" lon="6.73908">
        <ele>1488</ele>
        <time>2000-01-01T04:48:21.000Z</time>
      </trkpt>
      <trkpt lat="45.82747" lon="6.73989">
        <ele>1506</ele>
        <time>2000-01-01T04:48:31.000Z</time>
      </trkpt>
      <trkpt lat="45.82732" lon="6.74048">
        <ele>1504</ele>
        <time>2000-01-01T04:48:41.000Z</time>
      </trkpt>
      <trkpt lat="45.82697" lon="6.74065">
        <ele>1502</ele>
        <time>2000-01-01T04:48:51.000Z</time>
      </trkpt>
      <trkpt lat="45.8267" lon="6.74091">
        <ele>1501</ele>
        <time>2000-01-01T04:49:01.000Z</time>
      </trkpt>
      <trkpt lat="45.82647" lon="6.74121">
        <ele>1500</ele>
        <time>2000-01-01T04:49:11.000Z</time>
      </trkpt>
      <trkpt lat="45.82604" lon="6.74113">
        <ele>1493</ele>
        <time>2000-01-01T04:49:21.000Z</time>
      </trkpt>
      <trkpt lat="45.82579" lon="6.74094">
        <ele>1485</ele>
        <time>2000-01-01T04:49:31.000Z</time>
      </trkpt>
      <trkpt lat="45.82541" lon="6.74065">
        <ele>1473</ele>
        <time>2000-01-01T04:49:41.000Z</time>
      </trkpt>
      <trkpt lat="45.82524" lon="6.74079">
        <ele>1476</ele>
        <time>2000-01-01T04:49:51.000Z</time>
      </trkpt>
      <trkpt lat="45.82525" lon="6.74103">
        <ele>1471.9</ele>
        <time>2000-01-01T04:50:01.000Z</time>
      </trkpt>
      <trkpt lat="45.82546" lon="6.74111">
        <ele>1480</ele>
        <time>2000-01-01T04:50:11.000Z</time>
      </trkpt>
      <trkpt lat="45.82566" lon="6.74136">
        <ele>1486</ele>
        <time>2000-01-01T04:50:21.000Z</time>
      </trkpt>
      <trkpt lat="45.82597" lon="6.74143">
        <ele>1494</ele>
        <time>2000-01-01T04:50:31.000Z</time>
      </trkpt>
      <trkpt lat="45.82658" lon="6.74157">
        <ele>1511</ele>
        <time>2000-01-01T04:50:41.000Z</time>
      </trkpt>
      <trkpt lat="45.82683" lon="6.74144">
        <ele>1524</ele>
        <time>2000-01-01T04:50:51.000Z</time>
      </trkpt>
      <trkpt lat="45.82716" lon="6.74128">
        <ele>1530</ele>
        <time>2000-01-01T04:51:01.000Z</time>
      </trkpt>
      <trkpt lat="45.82738" lon="6.7414">
        <ele>1546</ele>
        <time>2000-01-01T04:51:11.000Z</time>
      </trkpt>
      <trkpt lat="45.8275" lon="6.74176">
        <ele>1555</ele>
        <time>2000-01-01T04:51:21.000Z</time>
      </trkpt>
      <trkpt lat="45.82778" lon="6.7421">
        <ele>1545</ele>
        <time>2000-01-01T04:51:31.000Z</time>
      </trkpt>
      <trkpt lat="45.82796" lon="6.74161">
        <ele>1536</ele>
        <time>2000-01-01T04:51:41.000Z</time>
      </trkpt>
      <trkpt lat="45.82811" lon="6.74178">
        <ele>1540</ele>
        <time>2000-01-01T04:51:51.000Z</time>
      </trkpt>
      <trkpt lat="45.82815" lon="6.74211">
        <ele>1544</ele>
        <time>2000-01-01T04:52:01.000Z</time>
      </trkpt>
      <trkpt lat="45.82852" lon="6.74249">
        <ele>1549</ele>
        <time>2000-01-01T04:52:11.000Z</time>
      </trkpt>
      <trkpt lat="45.82877" lon="6.74283">
        <ele>1562</ele>
        <time>2000-01-01T04:52:21.000Z</time>
      </trkpt>
      <trkpt lat="45.82888" lon="6.74312">
        <ele>1563</ele>
        <time>2000-01-01T04:52:31.000Z</time>
      </trkpt>
      <trkpt lat="45.82903" lon="6.74287">
        <ele>1564</ele>
        <time>2000-01-01T04:52:41.000Z</time>
      </trkpt>
      <trkpt lat="45.82911" lon="6.74287">
        <ele>1567.3</ele>
        <time>2000-01-01T04:52:51.000Z</time>
      </trkpt>
      <trkpt lat="45.8292" lon="6.74281">
        <ele>1566</ele>
        <time>2000-01-01T04:53:01.000Z</time>
      </trkpt>
      <trkpt lat="45.82956" lon="6.74355">
        <ele>1584</ele>
        <time>2000-01-01T04:53:11.000Z</time>
      </trkpt>
      <trkpt lat="45.82913" lon="6.74373">
        <ele>1592</ele>
        <time>2000-01-01T04:53:21.000Z</time>
      </trkpt>
      <trkpt lat="45.82926" lon="6.74393">
        <ele>1598</ele>
        <time>2000-01-01T04:53:31.000Z</time>
      </trkpt>
      <trkpt lat="45.8295" lon="6.74396">
        <ele>1598</ele>
        <time>2000-01-01T04:53:41.000Z</time>
      </trkpt>
      <trkpt lat="45.82978" lon="6.74444">
        <ele>1611</ele>
        <time>2000-01-01T04:53:51.000Z</time>
      </trkpt>
      <trkpt lat="45.83012" lon="6.74475">
        <ele>1618</ele>
        <time>2000-01-01T04:54:01.000Z</time>
      </trkpt>
      <trkpt lat="45.83052" lon="6.745">
        <ele>1619</ele>
        <time>2000-01-01T04:54:11.000Z</time>
      </trkpt>
      <trkpt lat="45.8307" lon="6.74532">
        <ele>1630</ele>
        <time>2000-01-01T04:54:21.000Z</time>
      </trkpt>
      <trkpt lat="45.83097" lon="6.74582">
        <ele>1637</ele>
        <time>2000-01-01T04:54:31.000Z</time>
      </trkpt>
      <trkpt lat="45.83136" lon="6.74589">
        <ele>1644</ele>
        <time>2000-01-01T04:54:41.000Z</time>
      </trkpt>
      <trkpt lat="45.83176" lon="6.74596">
        <ele>1650</ele>
        <time>2000-01-01T04:54:51.000Z</time>
      </trkpt>
      <trkpt lat="45.83215" lon="6.74603">
        <ele>1659</ele>
        <time>2000-01-01T04:55:01.000Z</time>
      </trkpt>
      <trkpt lat="45.83255" lon="6.7461">
        <ele>1661</ele>
        <time>2000-01-01T04:55:11.000Z</time>
      </trkpt>
      <trkpt lat="45.83294" lon="6.74616">
        <ele>1667</ele>
        <time>2000-01-01T04:55:21.000Z</time>
      </trkpt>
      <trkpt lat="45.83354" lon="6.74627">
        <ele>1671</ele>
        <time>2000-01-01T04:55:31.000Z</time>
      </trkpt>
      <trkpt lat="45.83385" lon="6.74646">
        <ele>1679</ele>
        <time>2000-01-01T04:55:41.000Z</time>
      </trkpt>
      <trkpt lat="45.83417" lon="6.74664">
        <ele>1678</ele>
        <time>2000-01-01T04:55:51.000Z</time>
      </trkpt>
      <trkpt lat="45.83467" lon="6.74694">
        <ele>1678</ele>
        <time>2000-01-01T04:56:01.000Z</time>
      </trkpt>
      <trkpt lat="45.83479" lon="6.74725">
        <ele>1687</ele>
        <time>2000-01-01T04:56:11.000Z</time>
      </trkpt>
      <trkpt lat="45.83493" lon="6.74759">
        <ele>1691</ele>
        <time>2000-01-01T04:56:21.000Z</time>
      </trkpt>
      <trkpt lat="45.83514" lon="6.74781">
        <ele>1695</ele>
        <time>2000-01-01T04:56:31.000Z</time>
      </trkpt>
      <trkpt lat="45.83542" lon="6.74809">
        <ele>1696</ele>
        <time>2000-01-01T04:56:41.000Z</time>
      </trkpt>
      <trkpt lat="45.83568" lon="6.74823">
        <ele>1702</ele>
        <time>2000-01-01T04:56:51.000Z</time>
      </trkpt>
      <trkpt lat="45.83591" lon="6.74859">
        <ele>1708</ele>
        <time>2000-01-01T04:57:01.000Z</time>
      </trkpt>
      <trkpt lat="45.83618" lon="6.74891">
        <ele>1713</ele>
        <time>2000-01-01T04:57:11.000Z</time>
      </trkpt>
      <trkpt lat="45.83621" lon="6.74931">
        <ele>1717</ele>
        <time>2000-01-01T04:57:21.000Z</time>
      </trkpt>
      <trkpt lat="45.83608" lon="6.74961">
        <ele>1720</ele>
        <time>2000-01-01T04:57:31.000Z</time>
      </trkpt>
      <trkpt lat="45.83595" lon="6.74992">
        <ele>1722</ele>
        <time>2000-01-01T04:57:41.000Z</time>
      </trkpt>
      <trkpt lat="45.83572" lon="6.7503">
        <ele>1726</ele>
        <time>2000-01-01T04:57:51.000Z</time>
      </trkpt>
      <trkpt lat="45.83545" lon="6.75061">
        <ele>1729</ele>
        <time>2000-01-01T04:58:01.000Z</time>
      </trkpt>
      <trkpt lat="45.8355" lon="6.75103">
        <ele>1733</ele>
        <time>2000-01-01T04:58:11.000Z</time>
      </trkpt>
      <trkpt lat="45.83558" lon="6.75178">
        <ele>1738</ele>
        <time>2000-01-01T04:58:21.000Z</time>
      </trkpt>
      <trkpt lat="45.83581" lon="6.75197">
        <ele>1740</ele>
        <time>2000-01-01T04:58:31.000Z</time>
      </trkpt>
      <trkpt lat="45.83607" lon="6.75225">
        <ele>1740</ele>
        <time>2000-01-01T04:58:41.000Z</time>
      </trkpt>
      <trkpt lat="45.83644" lon="6.75241">
        <ele>1740</ele>
        <time>2000-01-01T04:58:51.000Z</time>
      </trkpt>
      <trkpt lat="45.83647" lon="6.75254">
        <ele>1740.3</ele>
        <time>2000-01-01T04:59:01.000Z</time>
      </trkpt>
      <trkpt lat="45.83632" lon="6.75298">
        <ele>1738</ele>
        <time>2000-01-01T04:59:11.000Z</time>
      </trkpt>
      <trkpt lat="45.83631" lon="6.75344">
        <ele>1736</ele>
        <time>2000-01-01T04:59:21.000Z</time>
      </trkpt>
      <trkpt lat="45.83622" lon="6.75351">
        <ele>1736.2</ele>
        <time>2000-01-01T04:59:31.000Z</time>
      </trkpt>
      <trkpt lat="45.83619" lon="6.75374">
        <ele>1735</ele>
        <time>2000-01-01T04:59:41.000Z</time>
      </trkpt>
      <trkpt lat="45.83604" lon="6.75401">
        <ele>1735</ele>
        <time>2000-01-01T04:59:51.000Z</time>
      </trkpt>
      <trkpt lat="45.83603" lon="6.75453">
        <ele>1735</ele>
        <time>2000-01-01T05:00:01.000Z</time>
      </trkpt>
      <trkpt lat="45.83611" lon="6.7546">
        <ele>1734</ele>
        <time>2000-01-01T05:00:11.000Z</time>
      </trkpt>
      <trkpt lat="45.8361" lon="6.75469">
        <ele>1734.3</ele>
        <time>2000-01-01T05:00:21.000Z</time>
      </trkpt>
      <trkpt lat="45.83635" lon="6.75479">
        <ele>1730</ele>
        <time>2000-01-01T05:00:31.000Z</time>
      </trkpt>
      <trkpt lat="45.83628" lon="6.75513">
        <ele>1730</ele>
        <time>2000-01-01T05:00:41.000Z</time>
      </trkpt>
      <trkpt lat="45.83645" lon="6.75519">
        <ele>1719</ele>
        <time>2000-01-01T05:00:51.000Z</time>
      </trkpt>
      <trkpt lat="45.83672" lon="6.75522">
        <ele>1710</ele>
        <time>2000-01-01T05:01:01.000Z</time>
      </trkpt>
      <trkpt lat="45.8368" lon="6.75543">
        <ele>1700.6</ele>
        <time>2000-01-01T05:01:11.000Z</time>
      </trkpt>
      <trkpt lat="45.83693" lon="6.75557">
        <ele>1694</ele>
        <time>2000-01-01T05:01:21.000Z</time>
      </trkpt>
      <trkpt lat="45.83701" lon="6.75549">
        <ele>1693.8</ele>
        <time>2000-01-01T05:01:31.000Z</time>
      </trkpt>
      <trkpt lat="45.83713" lon="6.75563">
        <ele>1689</ele>
        <time>2000-01-01T05:01:41.000Z</time>
      </trkpt>
      <trkpt lat="45.8372" lon="6.75557">
        <ele>1687.6</ele>
        <time>2000-01-01T05:01:51.000Z</time>
      </trkpt>
      <trkpt lat="45.83735" lon="6.75564">
        <ele>1683</ele>
        <time>2000-01-01T05:02:01.000Z</time>
      </trkpt>
      <trkpt lat="45.83737" lon="6.75551">
        <ele>1680.8</ele>
        <time>2000-01-01T05:02:11.000Z</time>
      </trkpt>
      <trkpt lat="45.83746" lon="6.75559">
        <ele>1681</ele>
        <time>2000-01-01T05:02:21.000Z</time>
      </trkpt>
      <trkpt lat="45.83763" lon="6.75545">
        <ele>1670</ele>
        <time>2000-01-01T05:02:31.000Z</time>
      </trkpt>
      <trkpt lat="45.83782" lon="6.75547">
        <ele>1664</ele>
        <time>2000-01-01T05:02:41.000Z</time>
      </trkpt>
      <trkpt lat="45.83785" lon="6.7555">
        <ele>1660.7</ele>
        <time>2000-01-01T05:02:51.000Z</time>
      </trkpt>
      <trkpt lat="45.83863" lon="6.75581">
        <ele>1635</ele>
        <time>2000-01-01T05:03:01.000Z</time>
      </trkpt>
      <trkpt lat="45.83876" lon="6.75576">
        <ele>1634.4</ele>
        <time>2000-01-01T05:03:11.000Z</time>
      </trkpt>
      <trkpt lat="45.83903" lon="6.75572">
        <ele>1630</ele>
        <time>2000-01-01T05:03:21.000Z</time>
      </trkpt>
      <trkpt lat="45.83919" lon="6.75576">
        <ele>1627.4</ele>
        <time>2000-01-01T05:03:31.000Z</time>
      </trkpt>
      <trkpt lat="45.83937" lon="6.75588">
        <ele>1626</ele>
        <time>2000-01-01T05:03:41.000Z</time>
      </trkpt>
      <trkpt lat="45.83962" lon="6.75583">
        <ele>1621</ele>
        <time>2000-01-01T05:03:51.000Z</time>
      </trkpt>
      <trkpt lat="45.83958" lon="6.75612">
        <ele>1612</ele>
        <time>2000-01-01T05:04:01.000Z</time>
      </trkpt>
      <trkpt lat="45.8395" lon="6.7563">
        <ele>1603</ele>
        <time>2000-01-01T05:04:11.000Z</time>
      </trkpt>
      <trkpt lat="45.8391" lon="6.75656">
        <ele>1597</ele>
        <time>2000-01-01T05:04:21.000Z</time>
      </trkpt>
      <trkpt lat="45.83899" lon="6.75668">
        <ele>1588.7</ele>
        <time>2000-01-01T05:04:31.000Z</time>
      </trkpt>
      <trkpt lat="45.83921" lon="6.75684">
        <ele>1583</ele>
        <time>2000-01-01T05:04:41.000Z</time>
      </trkpt>
      <trkpt lat="45.83891" lon="6.75722">
        <ele>1570</ele>
        <time>2000-01-01T05:04:51.000Z</time>
      </trkpt>
      <trkpt lat="45.83918" lon="6.75733">
        <ele>1565</ele>
        <time>2000-01-01T05:05:01.000Z</time>
      </trkpt>
      <trkpt lat="45.83897" lon="6.75762">
        <ele>1559</ele>
        <time>2000-01-01T05:05:11.000Z</time>
      </trkpt>
      <trkpt lat="45.83892" lon="6.75783">
        <ele>1555</ele>
        <time>2000-01-01T05:05:21.000Z</time>
      </trkpt>
      <trkpt lat="45.8389" lon="6.75821">
        <ele>1557</ele>
        <time>2000-01-01T05:05:31.000Z</time>
      </trkpt>
      <trkpt lat="45.8386" lon="6.75832">
        <ele>1557</ele>
        <time>2000-01-01T05:05:41.000Z</time>
      </trkpt>
      <trkpt lat="45.83832" lon="6.75855">
        <ele>1558</ele>
        <time>2000-01-01T05:05:51.000Z</time>
      </trkpt>
      <trkpt lat="45.83821" lon="6.75875">
        <ele>1558.4</ele>
        <time>2000-01-01T05:06:01.000Z</time>
      </trkpt>
      <trkpt lat="45.8381" lon="6.75965">
        <ele>1558</ele>
        <time>2000-01-01T05:06:11.000Z</time>
      </trkpt>
      <trkpt lat="45.83838" lon="6.75988">
        <ele>1559</ele>
        <time>2000-01-01T05:06:21.000Z</time>
      </trkpt>
      <trkpt lat="45.83865" lon="6.76012">
        <ele>1560</ele>
        <time>2000-01-01T05:06:31.000Z</time>
      </trkpt>
      <trkpt lat="45.83897" lon="6.76039">
        <ele>1560</ele>
        <time>2000-01-01T05:06:41.000Z</time>
      </trkpt>
      <trkpt lat="45.83927" lon="6.76015">
        <ele>1560</ele>
        <time>2000-01-01T05:06:51.000Z</time>
      </trkpt>
      <trkpt lat="45.83965" lon="6.76031">
        <ele>1565</ele>
        <time>2000-01-01T05:07:01.000Z</time>
      </trkpt>
      <trkpt lat="45.84001" lon="6.76007">
        <ele>1566</ele>
        <time>2000-01-01T05:07:11.000Z</time>
      </trkpt>
      <trkpt lat="45.84047" lon="6.76003">
        <ele>1572</ele>
        <time>2000-01-01T05:07:21.000Z</time>
      </trkpt>
      <trkpt lat="45.84073" lon="6.76007">
        <ele>1574</ele>
        <time>2000-01-01T05:07:31.000Z</time>
      </trkpt>
      <trkpt lat="45.84084" lon="6.76047">
        <ele>1578</ele>
        <time>2000-01-01T05:07:41.000Z</time>
      </trkpt>
      <trkpt lat="45.84104" lon="6.76118">
        <ele>1588</ele>
        <time>2000-01-01T05:07:51.000Z</time>
      </trkpt>
      <trkpt lat="45.84111" lon="6.76158">
        <ele>1593</ele>
        <time>2000-01-01T05:08:01.000Z</time>
      </trkpt>
      <trkpt lat="45.84122" lon="6.76222">
        <ele>1602</ele>
        <time>2000-01-01T05:08:11.000Z</time>
      </trkpt>
      <trkpt lat="45.84137" lon="6.7623">
        <ele>1605.9</ele>
        <time>2000-01-01T05:08:21.000Z</time>
      </trkpt>
      <trkpt lat="45.84144" lon="6.76254">
        <ele>1609</ele>
        <time>2000-01-01T05:08:31.000Z</time>
      </trkpt>
      <trkpt lat="45.84155" lon="6.76263">
        <ele>1613.2</ele>
        <time>2000-01-01T05:08:41.000Z</time>
      </trkpt>
      <trkpt lat="45.84156" lon="6.76275">
        <ele>1613</ele>
        <time>2000-01-01T05:08:51.000Z</time>
      </trkpt>
      <trkpt lat="45.84187" lon="6.76304">
        <ele>1621</ele>
        <time>2000-01-01T05:09:01.000Z</time>
      </trkpt>
      <trkpt lat="45.84219" lon="6.76343">
        <ele>1631</ele>
        <time>2000-01-01T05:09:11.000Z</time>
      </trkpt>
      <trkpt lat="45.84237" lon="6.76343">
        <ele>1637.2</ele>
        <time>2000-01-01T05:09:21.000Z</time>
      </trkpt>
      <trkpt lat="45.84249" lon="6.76357">
        <ele>1638</ele>
        <time>2000-01-01T05:09:31.000Z</time>
      </trkpt>
      <trkpt lat="45.84263" lon="6.76362">
        <ele>1645.9</ele>
        <time>2000-01-01T05:09:41.000Z</time>
      </trkpt>
      <trkpt lat="45.84269" lon="6.76372">
        <ele>1646</ele>
        <time>2000-01-01T05:09:51.000Z</time>
      </trkpt>
      <trkpt lat="45.84292" lon="6.76383">
        <ele>1654</ele>
        <time>2000-01-01T05:10:01.000Z</time>
      </trkpt>
      <trkpt lat="45.84299" lon="6.76396">
        <ele>1660.1</ele>
        <time>2000-01-01T05:10:11.000Z</time>
      </trkpt>
      <trkpt lat="45.84319" lon="6.76417">
        <ele>1664</ele>
        <time>2000-01-01T05:10:21.000Z</time>
      </trkpt>
      <trkpt lat="45.84337" lon="6.76416">
        <ele>1674.6</ele>
        <time>2000-01-01T05:10:31.000Z</time>
      </trkpt>
      <trkpt lat="45.84361" lon="6.76438">
        <ele>1684</ele>
        <time>2000-01-01T05:10:41.000Z</time>
      </trkpt>
      <trkpt lat="45.84358" lon="6.76452">
        <ele>1686.4</ele>
        <time>2000-01-01T05:10:51.000Z</time>
      </trkpt>
      <trkpt lat="45.84374" lon="6.76472">
        <ele>1692</ele>
        <time>2000-01-01T05:11:01.000Z</time>
      </trkpt>
      <trkpt lat="45.84389" lon="6.76481">
        <ele>1701.6</ele>
        <time>2000-01-01T05:11:11.000Z</time>
      </trkpt>
      <trkpt lat="45.84392" lon="6.76456">
        <ele>1700</ele>
        <time>2000-01-01T05:11:21.000Z</time>
      </trkpt>
      <trkpt lat="45.84404" lon="6.76447">
        <ele>1708.5</ele>
        <time>2000-01-01T05:11:31.000Z</time>
      </trkpt>
      <trkpt lat="45.84427" lon="6.76463">
        <ele>1715</ele>
        <time>2000-01-01T05:11:41.000Z</time>
      </trkpt>
      <trkpt lat="45.84426" lon="6.76475">
        <ele>1715.8</ele>
        <time>2000-01-01T05:11:51.000Z</time>
      </trkpt>
      <trkpt lat="45.84466" lon="6.76491">
        <ele>1730</ele>
        <time>2000-01-01T05:12:01.000Z</time>
      </trkpt>
      <trkpt lat="45.84473" lon="6.76506">
        <ele>1737.8</ele>
        <time>2000-01-01T05:12:11.000Z</time>
      </trkpt>
      <trkpt lat="45.84485" lon="6.76506">
        <ele>1741</ele>
        <time>2000-01-01T05:12:21.000Z</time>
      </trkpt>
      <trkpt lat="45.84486" lon="6.76517">
        <ele>1745.1</ele>
        <time>2000-01-01T05:12:31.000Z</time>
      </trkpt>
      <trkpt lat="45.84494" lon="6.76518">
        <ele>1749</ele>
        <time>2000-01-01T05:12:41.000Z</time>
      </trkpt>
      <trkpt lat="45.84495" lon="6.76537">
        <ele>1747</ele>
        <time>2000-01-01T05:12:51.000Z</time>
      </trkpt>
      <trkpt lat="45.84505" lon="6.76563">
        <ele>1756</ele>
        <time>2000-01-01T05:13:01.000Z</time>
      </trkpt>
      <trkpt lat="45.8451" lon="6.76548">
        <ele>1760.4</ele>
        <time>2000-01-01T05:13:11.000Z</time>
      </trkpt>
      <trkpt lat="45.84515" lon="6.76577">
        <ele>1764</ele>
        <time>2000-01-01T05:13:21.000Z</time>
      </trkpt>
      <trkpt lat="45.84524" lon="6.76566">
        <ele>1769.3</ele>
        <time>2000-01-01T05:13:31.000Z</time>
      </trkpt>
      <trkpt lat="45.84523" lon="6.76592">
        <ele>1771</ele>
        <time>2000-01-01T05:13:41.000Z</time>
      </trkpt>
      <trkpt lat="45.84551" lon="6.76611">
        <ele>1787</ele>
        <time>2000-01-01T05:13:51.000Z</time>
      </trkpt>
      <trkpt lat="45.84606" lon="6.76649">
        <ele>1812</ele>
        <time>2000-01-01T05:14:01.000Z</time>
      </trkpt>
      <trkpt lat="45.84612" lon="6.76695">
        <ele>1827</ele>
        <time>2000-01-01T05:14:11.000Z</time>
      </trkpt>
      <trkpt lat="45.84649" lon="6.76678">
        <ele>1834</ele>
        <time>2000-01-01T05:14:21.000Z</time>
      </trkpt>
      <trkpt lat="45.84654" lon="6.76721">
        <ele>1849</ele>
        <time>2000-01-01T05:14:31.000Z</time>
      </trkpt>
      <trkpt lat="45.84684" lon="6.76709">
        <ele>1857</ele>
        <time>2000-01-01T05:14:41.000Z</time>
      </trkpt>
      <trkpt lat="45.84687" lon="6.76683">
        <ele>1862.3</ele>
        <time>2000-01-01T05:14:51.000Z</time>
      </trkpt>
      <trkpt lat="45.84705" lon="6.76711">
        <ele>1869</ele>
        <time>2000-01-01T05:15:01.000Z</time>
      </trkpt>
      <trkpt lat="45.84714" lon="6.7676">
        <ele>1885</ele>
        <time>2000-01-01T05:15:11.000Z</time>
      </trkpt>
      <trkpt lat="45.84741" lon="6.76727">
        <ele>1896</ele>
        <time>2000-01-01T05:15:21.000Z</time>
      </trkpt>
      <trkpt lat="45.84767" lon="6.76775">
        <ele>1914</ele>
        <time>2000-01-01T05:15:31.000Z</time>
      </trkpt>
      <trkpt lat="45.84759" lon="6.76841">
        <ele>1931</ele>
        <time>2000-01-01T05:15:41.000Z</time>
      </trkpt>
      <trkpt lat="45.84784" lon="6.76831">
        <ele>1939</ele>
        <time>2000-01-01T05:15:51.000Z</time>
      </trkpt>
      <trkpt lat="45.84814" lon="6.76818">
        <ele>1943</ele>
        <time>2000-01-01T05:16:01.000Z</time>
      </trkpt>
      <trkpt lat="45.84818" lon="6.76787">
        <ele>1948</ele>
        <time>2000-01-01T05:16:11.000Z</time>
      </trkpt>
      <trkpt lat="45.84839" lon="6.76763">
        <ele>1961</ele>
        <time>2000-01-01T05:16:21.000Z</time>
      </trkpt>
      <trkpt lat="45.84855" lon="6.76774">
        <ele>1980.9</ele>
        <time>2000-01-01T05:16:31.000Z</time>
      </trkpt>
      <trkpt lat="45.8485" lon="6.76792">
        <ele>1978</ele>
        <time>2000-01-01T05:16:41.000Z</time>
      </trkpt>
      <trkpt lat="45.84861" lon="6.76823">
        <ele>1983</ele>
        <time>2000-01-01T05:16:51.000Z</time>
      </trkpt>
      <trkpt lat="45.84873" lon="6.76856">
        <ele>1996</ele>
        <time>2000-01-01T05:17:01.000Z</time>
      </trkpt>
      <trkpt lat="45.84873" lon="6.7689">
        <ele>2004</ele>
        <time>2000-01-01T05:17:11.000Z</time>
      </trkpt>
      <trkpt lat="45.84887" lon="6.76874">
        <ele>2012.1</ele>
        <time>2000-01-01T05:17:21.000Z</time>
      </trkpt>
      <trkpt lat="45.84886" lon="6.7691">
        <ele>2013</ele>
        <time>2000-01-01T05:17:31.000Z</time>
      </trkpt>
      <trkpt lat="45.84902" lon="6.76888">
        <ele>2021</ele>
        <time>2000-01-01T05:17:41.000Z</time>
      </trkpt>
      <trkpt lat="45.84905" lon="6.76917">
        <ele>2027</ele>
        <time>2000-01-01T05:17:51.000Z</time>
      </trkpt>
      <trkpt lat="45.84923" lon="6.76905">
        <ele>2036</ele>
        <time>2000-01-01T05:18:01.000Z</time>
      </trkpt>
      <trkpt lat="45.84926" lon="6.7693">
        <ele>2046.3</ele>
        <time>2000-01-01T05:18:11.000Z</time>
      </trkpt>
      <trkpt lat="45.84941" lon="6.76916">
        <ele>2051</ele>
        <time>2000-01-01T05:18:21.000Z</time>
      </trkpt>
      <trkpt lat="45.84941" lon="6.76955">
        <ele>2057</ele>
        <time>2000-01-01T05:18:31.000Z</time>
      </trkpt>
      <trkpt lat="45.84958" lon="6.76932">
        <ele>2058</ele>
        <time>2000-01-01T05:18:41.000Z</time>
      </trkpt>
      <trkpt lat="45.84968" lon="6.76981">
        <ele>2075</ele>
        <time>2000-01-01T05:18:51.000Z</time>
      </trkpt>
      <trkpt lat="45.84988" lon="6.76963">
        <ele>2079</ele>
        <time>2000-01-01T05:19:01.000Z</time>
      </trkpt>
      <trkpt lat="45.85008" lon="6.76945">
        <ele>2087</ele>
        <time>2000-01-01T05:19:11.000Z</time>
      </trkpt>
      <trkpt lat="45.85003" lon="6.76981">
        <ele>2095</ele>
        <time>2000-01-01T05:19:21.000Z</time>
      </trkpt>
      <trkpt lat="45.84998" lon="6.77023">
        <ele>2105</ele>
        <time>2000-01-01T05:19:31.000Z</time>
      </trkpt>
      <trkpt lat="45.85013" lon="6.77002">
        <ele>2107</ele>
        <time>2000-01-01T05:19:41.000Z</time>
      </trkpt>
      <trkpt lat="45.85013" lon="6.77022">
        <ele>2114.2</ele>
        <time>2000-01-01T05:19:51.000Z</time>
      </trkpt>
      <trkpt lat="45.85042" lon="6.76995">
        <ele>2117</ele>
        <time>2000-01-01T05:20:01.000Z</time>
      </trkpt>
      <trkpt lat="45.85063" lon="6.77015">
        <ele>2117</ele>
        <time>2000-01-01T05:20:11.000Z</time>
      </trkpt>
      <trkpt lat="45.85089" lon="6.77038">
        <ele>2110</ele>
        <time>2000-01-01T05:20:21.000Z</time>
      </trkpt>
      <trkpt lat="45.85117" lon="6.77088">
        <ele>2096</ele>
        <time>2000-01-01T05:20:31.000Z</time>
      </trkpt>
      <trkpt lat="45.8512" lon="6.77111">
        <ele>2093.1</ele>
        <time>2000-01-01T05:20:41.000Z</time>
      </trkpt>
      <trkpt lat="45.85168" lon="6.77146">
        <ele>2080</ele>
        <time>2000-01-01T05:20:51.000Z</time>
      </trkpt>
      <trkpt lat="45.85189" lon="6.77163">
        <ele>2071</ele>
        <time>2000-01-01T05:21:01.000Z</time>
      </trkpt>
      <trkpt lat="45.8521" lon="6.77181">
        <ele>2061</ele>
        <time>2000-01-01T05:21:11.000Z</time>
      </trkpt>
      <trkpt lat="45.85234" lon="6.77211">
        <ele>2053</ele>
        <time>2000-01-01T05:21:21.000Z</time>
      </trkpt>
      <trkpt lat="45.85256" lon="6.77223">
        <ele>2049</ele>
        <time>2000-01-01T05:21:31.000Z</time>
      </trkpt>
      <trkpt lat="45.85278" lon="6.77235">
        <ele>2045</ele>
        <time>2000-01-01T05:21:41.000Z</time>
      </trkpt>
      <trkpt lat="45.85296" lon="6.77258">
        <ele>2040</ele>
        <time>2000-01-01T05:21:51.000Z</time>
      </trkpt>
      <trkpt lat="45.85314" lon="6.77283">
        <ele>2033</ele>
        <time>2000-01-01T05:22:01.000Z</time>
      </trkpt>
      <trkpt lat="45.85346" lon="6.773">
        <ele>2028</ele>
        <time>2000-01-01T05:22:11.000Z</time>
      </trkpt>
      <trkpt lat="45.85377" lon="6.77317">
        <ele>2020</ele>
        <time>2000-01-01T05:22:21.000Z</time>
      </trkpt>
      <trkpt lat="45.85427" lon="6.77343">
        <ele>2008</ele>
        <time>2000-01-01T05:22:31.000Z</time>
      </trkpt>
      <trkpt lat="45.85456" lon="6.77368">
        <ele>2005</ele>
        <time>2000-01-01T05:22:41.000Z</time>
      </trkpt>
      <trkpt lat="45.85481" lon="6.77376">
        <ele>2003</ele>
        <time>2000-01-01T05:22:51.000Z</time>
      </trkpt>
      <trkpt lat="45.855" lon="6.77402">
        <ele>1994</ele>
        <time>2000-01-01T05:23:01.000Z</time>
      </trkpt>
      <trkpt lat="45.85525" lon="6.77435">
        <ele>1989</ele>
        <time>2000-01-01T05:23:11.000Z</time>
      </trkpt>
      <trkpt lat="45.85556" lon="6.77458">
        <ele>1981</ele>
        <time>2000-01-01T05:23:21.000Z</time>
      </trkpt>
      <trkpt lat="45.85581" lon="6.77514">
        <ele>1969</ele>
        <time>2000-01-01T05:23:31.000Z</time>
      </trkpt>
      <trkpt lat="45.85604" lon="6.77521">
        <ele>1963</ele>
        <time>2000-01-01T05:23:41.000Z</time>
      </trkpt>
      <trkpt lat="45.85609" lon="6.77541">
        <ele>1958.9</ele>
        <time>2000-01-01T05:23:51.000Z</time>
      </trkpt>
      <trkpt lat="45.85626" lon="6.77563">
        <ele>1953</ele>
        <time>2000-01-01T05:24:01.000Z</time>
      </trkpt>
      <trkpt lat="45.85634" lon="6.77594">
        <ele>1946</ele>
        <time>2000-01-01T05:24:11.000Z</time>
      </trkpt>
      <trkpt lat="45.85659" lon="6.77618">
        <ele>1941</ele>
        <time>2000-01-01T05:24:21.000Z</time>
      </trkpt>
      <trkpt lat="45.85667" lon="6.77635">
        <ele>1938.2</ele>
        <time>2000-01-01T05:24:31.000Z</time>
      </trkpt>
      <trkpt lat="45.85698" lon="6.77657">
        <ele>1931</ele>
        <time>2000-01-01T05:24:41.000Z</time>
      </trkpt>
      <trkpt lat="45.857" lon="6.77685">
        <ele>1927</ele>
        <time>2000-01-01T05:24:51.000Z</time>
      </trkpt>
      <trkpt lat="45.85724" lon="6.77727">
        <ele>1921</ele>
        <time>2000-01-01T05:25:01.000Z</time>
      </trkpt>
      <trkpt lat="45.85751" lon="6.77745">
        <ele>1915</ele>
        <time>2000-01-01T05:25:11.000Z</time>
      </trkpt>
      <trkpt lat="45.85767" lon="6.77772">
        <ele>1910</ele>
        <time>2000-01-01T05:25:21.000Z</time>
      </trkpt>
      <trkpt lat="45.85763" lon="6.77799">
        <ele>1906</ele>
        <time>2000-01-01T05:25:31.000Z</time>
      </trkpt>
      <trkpt lat="45.85772" lon="6.77818">
        <ele>1898</ele>
        <time>2000-01-01T05:25:41.000Z</time>
      </trkpt>
      <trkpt lat="45.85796" lon="6.7783">
        <ele>1889</ele>
        <time>2000-01-01T05:25:51.000Z</time>
      </trkpt>
      <trkpt lat="45.85814" lon="6.77834">
        <ele>1883.2</ele>
        <time>2000-01-01T05:26:01.000Z</time>
      </trkpt>
      <trkpt lat="45.85832" lon="6.77862">
        <ele>1873</ele>
        <time>2000-01-01T05:26:11.000Z</time>
      </trkpt>
      <trkpt lat="45.8585" lon="6.77898">
        <ele>1865</ele>
        <time>2000-01-01T05:26:21.000Z</time>
      </trkpt>
      <trkpt lat="45.85876" lon="6.7792">
        <ele>1857</ele>
        <time>2000-01-01T05:26:31.000Z</time>
      </trkpt>
      <trkpt lat="45.85876" lon="6.77945">
        <ele>1852.4</ele>
        <time>2000-01-01T05:26:41.000Z</time>
      </trkpt>
      <trkpt lat="45.85915" lon="6.77968">
        <ele>1848</ele>
        <time>2000-01-01T05:26:51.000Z</time>
      </trkpt>
      <trkpt lat="45.85914" lon="6.77991">
        <ele>1843.3</ele>
        <time>2000-01-01T05:27:01.000Z</time>
      </trkpt>
      <trkpt lat="45.85947" lon="6.78003">
        <ele>1839</ele>
        <time>2000-01-01T05:27:11.000Z</time>
      </trkpt>
      <trkpt lat="45.85983" lon="6.78036">
        <ele>1834</ele>
        <time>2000-01-01T05:27:21.000Z</time>
      </trkpt>
      <trkpt lat="45.86013" lon="6.78056">
        <ele>1825</ele>
        <time>2000-01-01T05:27:31.000Z</time>
      </trkpt>
      <trkpt lat="45.86008" lon="6.78075">
        <ele>1826.4</ele>
        <time>2000-01-01T05:27:41.000Z</time>
      </trkpt>
      <trkpt lat="45.86038" lon="6.78071">
        <ele>1816</ele>
        <time>2000-01-01T05:27:51.000Z</time>
      </trkpt>
      <trkpt lat="45.86055" lon="6.78091">
        <ele>1814</ele>
        <time>2000-01-01T05:28:01.000Z</time>
      </trkpt>
      <trkpt lat="45.86045" lon="6.78121">
        <ele>1813</ele>
        <time>2000-01-01T05:28:11.000Z</time>
      </trkpt>
      <trkpt lat="45.86074" lon="6.78148">
        <ele>1801</ele>
        <time>2000-01-01T05:28:21.000Z</time>
      </trkpt>
      <trkpt lat="45.86098" lon="6.78154">
        <ele>1794</ele>
        <time>2000-01-01T05:28:31.000Z</time>
      </trkpt>
      <trkpt lat="45.86123" lon="6.78161">
        <ele>1789</ele>
        <time>2000-01-01T05:28:41.000Z</time>
      </trkpt>
      <trkpt lat="45.86134" lon="6.78194">
        <ele>1784</ele>
        <time>2000-01-01T05:28:51.000Z</time>
      </trkpt>
      <trkpt lat="45.86148" lon="6.78235">
        <ele>1782</ele>
        <time>2000-01-01T05:29:01.000Z</time>
      </trkpt>
      <trkpt lat="45.86157" lon="6.78277">
        <ele>1773</ele>
        <time>2000-01-01T05:29:11.000Z</time>
      </trkpt>
      <trkpt lat="45.86166" lon="6.78273">
        <ele>1759.4</ele>
        <time>2000-01-01T05:29:21.000Z</time>
      </trkpt>
      <trkpt lat="45.86171" lon="6.78316">
        <ele>1746</ele>
        <time>2000-01-01T05:29:31.000Z</time>
      </trkpt>
      <trkpt lat="45.86186" lon="6.78298">
        <ele>1744</ele>
        <time>2000-01-01T05:29:41.000Z</time>
      </trkpt>
      <trkpt lat="45.862" lon="6.78312">
        <ele>1732.3</ele>
        <time>2000-01-01T05:29:51.000Z</time>
      </trkpt>
      <trkpt lat="45.86204" lon="6.78287">
        <ele>1734</ele>
        <time>2000-01-01T05:30:01.000Z</time>
      </trkpt>
      <trkpt lat="45.86228" lon="6.78288">
        <ele>1724</ele>
        <time>2000-01-01T05:30:11.000Z</time>
      </trkpt>
      <trkpt lat="45.8623" lon="6.78305">
        <ele>1717.6</ele>
        <time>2000-01-01T05:30:21.000Z</time>
      </trkpt>
      <trkpt lat="45.8625" lon="6.78298">
        <ele>1707</ele>
        <time>2000-01-01T05:30:31.000Z</time>
      </trkpt>
      <trkpt lat="45.8626" lon="6.78311">
        <ele>1704.5</ele>
        <time>2000-01-01T05:30:41.000Z</time>
      </trkpt>
      <trkpt lat="45.86272" lon="6.78295">
        <ele>1697</ele>
        <time>2000-01-01T05:30:51.000Z</time>
      </trkpt>
      <trkpt lat="45.86297" lon="6.78325">
        <ele>1697</ele>
        <time>2000-01-01T05:31:01.000Z</time>
      </trkpt>
      <trkpt lat="45.86291" lon="6.78335">
        <ele>1702.5</ele>
        <time>2000-01-01T05:31:11.000Z</time>
      </trkpt>
      <trkpt lat="45.86317" lon="6.78352">
        <ele>1702</ele>
        <time>2000-01-01T05:31:21.000Z</time>
      </trkpt>
      <trkpt lat="45.86336" lon="6.78346">
        <ele>1707</ele>
        <time>2000-01-01T05:31:31.000Z</time>
      </trkpt>
      <trkpt lat="45.86354" lon="6.78353">
        <ele>1714.5</ele>
        <time>2000-01-01T05:31:41.000Z</time>
      </trkpt>
      <trkpt lat="45.86351" lon="6.78401">
        <ele>1724</ele>
        <time>2000-01-01T05:31:51.000Z</time>
      </trkpt>
      <trkpt lat="45.86367" lon="6.78435">
        <ele>1729</ele>
        <time>2000-01-01T05:32:01.000Z</time>
      </trkpt>
      <trkpt lat="45.86361" lon="6.78477">
        <ele>1736</ele>
        <time>2000-01-01T05:32:11.000Z</time>
      </trkpt>
      <trkpt lat="45.86355" lon="6.7849">
        <ele>1739</ele>
        <time>2000-01-01T05:32:21.000Z</time>
      </trkpt>
      <trkpt lat="45.8639" lon="6.7852">
        <ele>1748</ele>
        <time>2000-01-01T05:32:31.000Z</time>
      </trkpt>
      <trkpt lat="45.86393" lon="6.78564">
        <ele>1757</ele>
        <time>2000-01-01T05:32:41.000Z</time>
      </trkpt>
      <trkpt lat="45.86375" lon="6.78603">
        <ele>1763</ele>
        <time>2000-01-01T05:32:51.000Z</time>
      </trkpt>
      <trkpt lat="45.86389" lon="6.78604">
        <ele>1772.9</ele>
        <time>2000-01-01T05:33:01.000Z</time>
      </trkpt>
      <trkpt lat="45.86378" lon="6.78631">
        <ele>1780</ele>
        <time>2000-01-01T05:33:11.000Z</time>
      </trkpt>
      <trkpt lat="45.86406" lon="6.78653">
        <ele>1783</ele>
        <time>2000-01-01T05:33:21.000Z</time>
      </trkpt>
      <trkpt lat="45.86414" lon="6.78695">
        <ele>1782</ele>
        <time>2000-01-01T05:33:31.000Z</time>
      </trkpt>
      <trkpt lat="45.86437" lon="6.78706">
        <ele>1782</ele>
        <time>2000-01-01T05:33:41.000Z</time>
      </trkpt>
      <trkpt lat="45.8646" lon="6.78725">
        <ele>1780</ele>
        <time>2000-01-01T05:33:51.000Z</time>
      </trkpt>
      <trkpt lat="45.86495" lon="6.78767">
        <ele>1776</ele>
        <time>2000-01-01T05:34:01.000Z</time>
      </trkpt>
      <trkpt lat="45.86507" lon="6.78737">
        <ele>1774</ele>
        <time>2000-01-01T05:34:11.000Z</time>
      </trkpt>
      <trkpt lat="45.8652" lon="6.78707">
        <ele>1773</ele>
        <time>2000-01-01T05:34:21.000Z</time>
      </trkpt>
      <trkpt lat="45.8652" lon="6.78664">
        <ele>1768</ele>
        <time>2000-01-01T05:34:31.000Z</time>
      </trkpt>
      <trkpt lat="45.86555" lon="6.78623">
        <ele>1766</ele>
        <time>2000-01-01T05:34:41.000Z</time>
      </trkpt>
      <trkpt lat="45.86573" lon="6.78576">
        <ele>1764</ele>
        <time>2000-01-01T05:34:51.000Z</time>
      </trkpt>
      <trkpt lat="45.86572" lon="6.78526">
        <ele>1759</ele>
        <time>2000-01-01T05:35:01.000Z</time>
      </trkpt>
      <trkpt lat="45.86597" lon="6.78525">
        <ele>1758</ele>
        <time>2000-01-01T05:35:11.000Z</time>
      </trkpt>
      <trkpt lat="45.86627" lon="6.78524">
        <ele>1758</ele>
        <time>2000-01-01T05:35:21.000Z</time>
      </trkpt>
      <trkpt lat="45.86651" lon="6.78528">
        <ele>1760</ele>
        <time>2000-01-01T05:35:31.000Z</time>
      </trkpt>
      <trkpt lat="45.86675" lon="6.78533">
        <ele>1759</ele>
        <time>2000-01-01T05:35:41.000Z</time>
      </trkpt>
      <trkpt lat="45.86701" lon="6.78516">
        <ele>1759</ele>
        <time>2000-01-01T05:35:51.000Z</time>
      </trkpt>
      <trkpt lat="45.86729" lon="6.78524">
        <ele>1757</ele>
        <time>2000-01-01T05:36:01.000Z</time>
      </trkpt>
      <trkpt lat="45.86757" lon="6.78501">
        <ele>1763</ele>
        <time>2000-01-01T05:36:11.000Z</time>
      </trkpt>
      <trkpt lat="45.86791" lon="6.78516">
        <ele>1754</ele>
        <time>2000-01-01T05:36:21.000Z</time>
      </trkpt>
      <trkpt lat="45.868" lon="6.7847">
        <ele>1756</ele>
        <time>2000-01-01T05:36:31.000Z</time>
      </trkpt>
      <trkpt lat="45.86825" lon="6.78461">
        <ele>1759</ele>
        <time>2000-01-01T05:36:41.000Z</time>
      </trkpt>
      <trkpt lat="45.86856" lon="6.78449">
        <ele>1764</ele>
        <time>2000-01-01T05:36:51.000Z</time>
      </trkpt>
      <trkpt lat="45.8687" lon="6.78422">
        <ele>1764</ele>
        <time>2000-01-01T05:37:01.000Z</time>
      </trkpt>
      <trkpt lat="45.86885" lon="6.78394">
        <ele>1759</ele>
        <time>2000-01-01T05:37:11.000Z</time>
      </trkpt>
      <trkpt lat="45.86922" lon="6.7838">
        <ele>1755</ele>
        <time>2000-01-01T05:37:21.000Z</time>
      </trkpt>
      <trkpt lat="45.86928" lon="6.7835">
        <ele>1745</ele>
        <time>2000-01-01T05:37:31.000Z</time>
      </trkpt>
      <trkpt lat="45.86943" lon="6.78341">
        <ele>1759.8</ele>
        <time>2000-01-01T05:37:41.000Z</time>
      </trkpt>
      <trkpt lat="45.86946" lon="6.78302">
        <ele>1743</ele>
        <time>2000-01-01T05:37:51.000Z</time>
      </trkpt>
      <trkpt lat="45.86967" lon="6.78276">
        <ele>1742</ele>
        <time>2000-01-01T05:38:01.000Z</time>
      </trkpt>
      <trkpt lat="45.86996" lon="6.78239">
        <ele>1741</ele>
        <time>2000-01-01T05:38:11.000Z</time>
      </trkpt>
      <trkpt lat="45.87026" lon="6.78224">
        <ele>1740</ele>
        <time>2000-01-01T05:38:21.000Z</time>
      </trkpt>
      <trkpt lat="45.87056" lon="6.78208">
        <ele>1740</ele>
        <time>2000-01-01T05:38:31.000Z</time>
      </trkpt>
      <trkpt lat="45.8709" lon="6.78191">
        <ele>1737</ele>
        <time>2000-01-01T05:38:41.000Z</time>
      </trkpt>
      <trkpt lat="45.87109" lon="6.7815">
        <ele>1738</ele>
        <time>2000-01-01T05:38:51.000Z</time>
      </trkpt>
      <trkpt lat="45.87129" lon="6.78109">
        <ele>1740</ele>
        <time>2000-01-01T05:39:01.000Z</time>
      </trkpt>
      <trkpt lat="45.87163" lon="6.78037">
        <ele>1751</ele>
        <time>2000-01-01T05:39:11.000Z</time>
      </trkpt>
      <trkpt lat="45.87171" lon="6.77989">
        <ele>1751</ele>
        <time>2000-01-01T05:39:21.000Z</time>
      </trkpt>
      <trkpt lat="45.87178" lon="6.77941">
        <ele>1746</ele>
        <time>2000-01-01T05:39:31.000Z</time>
      </trkpt>
      <trkpt lat="45.87191" lon="6.77862">
        <ele>1746</ele>
        <time>2000-01-01T05:39:41.000Z</time>
      </trkpt>
      <trkpt lat="45.87207" lon="6.77825">
        <ele>1748</ele>
        <time>2000-01-01T05:39:51.000Z</time>
      </trkpt>
      <trkpt lat="45.87236" lon="6.77756">
        <ele>1752</ele>
        <time>2000-01-01T05:40:01.000Z</time>
      </trkpt>
      <trkpt lat="45.87264" lon="6.77767">
        <ele>1766</ele>
        <time>2000-01-01T05:40:11.000Z</time>
      </trkpt>
      <trkpt lat="45.87307" lon="6.77784">
        <ele>1779</ele>
        <time>2000-01-01T05:40:21.000Z</time>
      </trkpt>
      <trkpt lat="45.87316" lon="6.77819">
        <ele>1784</ele>
        <time>2000-01-01T05:40:31.000Z</time>
      </trkpt>
      <trkpt lat="45.87328" lon="6.77862">
        <ele>1793</ele>
        <time>2000-01-01T05:40:41.000Z</time>
      </trkpt>
      <trkpt lat="45.87352" lon="6.77885">
        <ele>1796</ele>
        <time>2000-01-01T05:40:51.000Z</time>
      </trkpt>
      <trkpt lat="45.87388" lon="6.7792">
        <ele>1796</ele>
        <time>2000-01-01T05:41:01.000Z</time>
      </trkpt>
      <trkpt lat="45.87365" lon="6.77885">
        <ele>1796</ele>
        <time>2000-01-01T05:41:11.000Z</time>
      </trkpt>
      <trkpt lat="45.87371" lon="6.77847">
        <ele>1791</ele>
        <time>2000-01-01T05:41:21.000Z</time>
      </trkpt>
      <trkpt lat="45.8738" lon="6.77795">
        <ele>1788</ele>
        <time>2000-01-01T05:41:31.000Z</time>
      </trkpt>
      <trkpt lat="45.8738" lon="6.77743">
        <ele>1786</ele>
        <time>2000-01-01T05:41:41.000Z</time>
      </trkpt>
      <trkpt lat="45.8738" lon="6.77692">
        <ele>1783</ele>
        <time>2000-01-01T05:41:51.000Z</time>
      </trkpt>
      <trkpt lat="45.8738" lon="6.7764">
        <ele>1780</ele>
        <time>2000-01-01T05:42:01.000Z</time>
      </trkpt>
      <trkpt lat="45.8738" lon="6.77575">
        <ele>1775</ele>
        <time>2000-01-01T05:42:11.000Z</time>
      </trkpt>
      <trkpt lat="45.87365" lon="6.77516">
        <ele>1773</ele>
        <time>2000-01-01T05:42:21.000Z</time>
      </trkpt>
      <trkpt lat="45.87372" lon="6.77469">
        <ele>1771</ele>
        <time>2000-01-01T05:42:31.000Z</time>
      </trkpt>
      <trkpt lat="45.87378" lon="6.77422">
        <ele>1771</ele>
        <time>2000-01-01T05:42:41.000Z</time>
      </trkpt>
      <trkpt lat="45.87388" lon="6.77351">
        <ele>1770</ele>
        <time>2000-01-01T05:42:51.000Z</time>
      </trkpt>
      <trkpt lat="45.87387" lon="6.77314">
        <ele>1770</ele>
        <time>2000-01-01T05:43:01.000Z</time>
      </trkpt>
      <trkpt lat="45.87385" lon="6.77267">
        <ele>1769</ele>
        <time>2000-01-01T05:43:11.000Z</time>
      </trkpt>
      <trkpt lat="45.87369" lon="6.77266">
        <ele>1771.4</ele>
        <time>2000-01-01T05:43:21.000Z</time>
      </trkpt>
      <trkpt lat="45.87359" lon="6.77319">
        <ele>1769</ele>
        <time>2000-01-01T05:43:31.000Z</time>
      </trkpt>
      <trkpt lat="45.87336" lon="6.77348">
        <ele>1767</ele>
        <time>2000-01-01T05:43:41.000Z</time>
      </trkpt>
      <trkpt lat="45.87293" lon="6.77404">
        <ele>1755</ele>
        <time>2000-01-01T05:43:51.000Z</time>
      </trkpt>
      <trkpt lat="45.87283" lon="6.77439">
        <ele>1747</ele>
        <time>2000-01-01T05:44:01.000Z</time>
      </trkpt>
      <trkpt lat="45.8727" lon="6.77483">
        <ele>1743</ele>
        <time>2000-01-01T05:44:11.000Z</time>
      </trkpt>
      <trkpt lat="45.87257" lon="6.77512">
        <ele>1732</ele>
        <time>2000-01-01T05:44:21.000Z</time>
      </trkpt>
      <trkpt lat="45.87242" lon="6.77544">
        <ele>1729</ele>
        <time>2000-01-01T05:44:31.000Z</time>
      </trkpt>
      <trkpt lat="45.87234" lon="6.7758">
        <ele>1726</ele>
        <time>2000-01-01T05:44:41.000Z</time>
      </trkpt>
      <trkpt lat="45.87224" lon="6.77624">
        <ele>1725</ele>
        <time>2000-01-01T05:44:51.000Z</time>
      </trkpt>
      <trkpt lat="45.872" lon="6.77651">
        <ele>1714</ele>
        <time>2000-01-01T05:45:01.000Z</time>
      </trkpt>
      <trkpt lat="45.87153" lon="6.77703">
        <ele>1704</ele>
        <time>2000-01-01T05:45:11.000Z</time>
      </trkpt>
      <trkpt lat="45.87129" lon="6.77697">
        <ele>1686</ele>
        <time>2000-01-01T05:45:21.000Z</time>
      </trkpt>
      <trkpt lat="45.87112" lon="6.77662">
        <ele>1675</ele>
        <time>2000-01-01T05:45:31.000Z</time>
      </trkpt>
      <trkpt lat="45.87083" lon="6.776">
        <ele>1639</ele>
        <time>2000-01-01T05:45:41.000Z</time>
      </trkpt>
      <trkpt lat="45.87089" lon="6.7755">
        <ele>1632</ele>
        <time>2000-01-01T05:45:51.000Z</time>
      </trkpt>
      <trkpt lat="45.87067" lon="6.77496">
        <ele>1617</ele>
        <time>2000-01-01T05:46:01.000Z</time>
      </trkpt>
      <trkpt lat="45.87052" lon="6.7753">
        <ele>1611</ele>
        <time>2000-01-01T05:46:11.000Z</time>
      </trkpt>
      <trkpt lat="45.8703" lon="6.7758">
        <ele>1596</ele>
        <time>2000-01-01T05:46:21.000Z</time>
      </trkpt>
      <trkpt lat="45.87024" lon="6.77539">
        <ele>1592</ele>
        <time>2000-01-01T05:46:31.000Z</time>
      </trkpt>
      <trkpt lat="45.87014" lon="6.77471">
        <ele>1586</ele>
        <time>2000-01-01T05:46:41.000Z</time>
      </trkpt>
      <trkpt lat="45.86985" lon="6.77471">
        <ele>1572</ele>
        <time>2000-01-01T05:46:51.000Z</time>
      </trkpt>
      <trkpt lat="45.8697" lon="6.77439">
        <ele>1568</ele>
        <time>2000-01-01T05:47:01.000Z</time>
      </trkpt>
      <trkpt lat="45.86951" lon="6.77397">
        <ele>1559</ele>
        <time>2000-01-01T05:47:11.000Z</time>
      </trkpt>
      <trkpt lat="45.86928" lon="6.7743">
        <ele>1553</ele>
        <time>2000-01-01T05:47:21.000Z</time>
      </trkpt>
      <trkpt lat="45.86915" lon="6.77461">
        <ele>1552</ele>
        <time>2000-01-01T05:47:31.000Z</time>
      </trkpt>
      <trkpt lat="45.86899" lon="6.77499">
        <ele>1546</ele>
        <time>2000-01-01T05:47:41.000Z</time>
      </trkpt>
      <trkpt lat="45.869" lon="6.77461">
        <ele>1546</ele>
        <time>2000-01-01T05:47:51.000Z</time>
      </trkpt>
      <trkpt lat="45.86901" lon="6.77411">
        <ele>1543</ele>
        <time>2000-01-01T05:48:01.000Z</time>
      </trkpt>
      <trkpt lat="45.86887" lon="6.77372">
        <ele>1540</ele>
        <time>2000-01-01T05:48:11.000Z</time>
      </trkpt>
      <trkpt lat="45.86888" lon="6.77325">
        <ele>1539</ele>
        <time>2000-01-01T05:48:21.000Z</time>
      </trkpt>
      <trkpt lat="45.86866" lon="6.77338">
        <ele>1533</ele>
        <time>2000-01-01T05:48:31.000Z</time>
      </trkpt>
      <trkpt lat="45.86853" lon="6.77387">
        <ele>1530</ele>
        <time>2000-01-01T05:48:41.000Z</time>
      </trkpt>
      <trkpt lat="45.8684" lon="6.77435">
        <ele>1520</ele>
        <time>2000-01-01T05:48:51.000Z</time>
      </trkpt>
      <trkpt lat="45.86827" lon="6.77484">
        <ele>1517</ele>
        <time>2000-01-01T05:49:01.000Z</time>
      </trkpt>
      <trkpt lat="45.86808" lon="6.77554">
        <ele>1509</ele>
        <time>2000-01-01T05:49:11.000Z</time>
      </trkpt>
      <trkpt lat="45.86784" lon="6.77565">
        <ele>1502</ele>
        <time>2000-01-01T05:49:21.000Z</time>
      </trkpt>
      <trkpt lat="45.86767" lon="6.77542">
        <ele>1493</ele>
        <time>2000-01-01T05:49:31.000Z</time>
      </trkpt>
      <trkpt lat="45.86755" lon="6.77482">
        <ele>1491</ele>
        <time>2000-01-01T05:49:41.000Z</time>
      </trkpt>
      <trkpt lat="45.86742" lon="6.7745">
        <ele>1487</ele>
        <time>2000-01-01T05:49:51.000Z</time>
      </trkpt>
      <trkpt lat="45.86725" lon="6.7741">
        <ele>1480</ele>
        <time>2000-01-01T05:50:01.000Z</time>
      </trkpt>
      <trkpt lat="45.86709" lon="6.77385">
        <ele>1471</ele>
        <time>2000-01-01T05:50:11.000Z</time>
      </trkpt>
      <trkpt lat="45.86692" lon="6.77358">
        <ele>1469</ele>
        <time>2000-01-01T05:50:21.000Z</time>
      </trkpt>
      <trkpt lat="45.8668" lon="6.773">
        <ele>1465</ele>
        <time>2000-01-01T05:50:31.000Z</time>
      </trkpt>
      <trkpt lat="45.86661" lon="6.77262">
        <ele>1460</ele>
        <time>2000-01-01T05:50:41.000Z</time>
      </trkpt>
      <trkpt lat="45.86652" lon="6.77212">
        <ele>1457</ele>
        <time>2000-01-01T05:50:51.000Z</time>
      </trkpt>
      <trkpt lat="45.86643" lon="6.77162">
        <ele>1455</ele>
        <time>2000-01-01T05:51:01.000Z</time>
      </trkpt>
      <trkpt lat="45.86634" lon="6.77112">
        <ele>1448</ele>
        <time>2000-01-01T05:51:11.000Z</time>
      </trkpt>
      <trkpt lat="45.86623" lon="6.77049">
        <ele>1438</ele>
        <time>2000-01-01T05:51:21.000Z</time>
      </trkpt>
      <trkpt lat="45.86614" lon="6.77008">
        <ele>1427</ele>
        <time>2000-01-01T05:51:31.000Z</time>
      </trkpt>
      <trkpt lat="45.86599" lon="6.76934">
        <ele>1407</ele>
        <time>2000-01-01T05:51:41.000Z</time>
      </trkpt>
      <trkpt lat="45.86598" lon="6.76886">
        <ele>1404</ele>
        <time>2000-01-01T05:51:51.000Z</time>
      </trkpt>
      <trkpt lat="45.86597" lon="6.76839">
        <ele>1400</ele>
        <time>2000-01-01T05:52:01.000Z</time>
      </trkpt>
      <trkpt lat="45.86595" lon="6.76771">
        <ele>1401</ele>
        <time>2000-01-01T05:52:11.000Z</time>
      </trkpt>
      <trkpt lat="45.866" lon="6.76733">
        <ele>1402</ele>
        <time>2000-01-01T05:52:21.000Z</time>
      </trkpt>
      <trkpt lat="45.86607" lon="6.76681">
        <ele>1402</ele>
        <time>2000-01-01T05:52:31.000Z</time>
      </trkpt>
      <trkpt lat="45.86598" lon="6.76642">
        <ele>1400</ele>
        <time>2000-01-01T05:52:41.000Z</time>
      </trkpt>
      <trkpt lat="45.86602" lon="6.76601">
        <ele>1398</ele>
        <time>2000-01-01T05:52:51.000Z</time>
      </trkpt>
      <trkpt lat="45.86608" lon="6.76537">
        <ele>1389</ele>
        <time>2000-01-01T05:53:01.000Z</time>
      </trkpt>
      <trkpt lat="45.86605" lon="6.76483">
        <ele>1384</ele>
        <time>2000-01-01T05:53:11.000Z</time>
      </trkpt>
      <trkpt lat="45.86602" lon="6.76429">
        <ele>1384</ele>
        <time>2000-01-01T05:53:21.000Z</time>
      </trkpt>
      <trkpt lat="45.86599" lon="6.76375">
        <ele>1377</ele>
        <time>2000-01-01T05:53:31.000Z</time>
      </trkpt>
      <trkpt lat="45.86596" lon="6.76322">
        <ele>1377</ele>
        <time>2000-01-01T05:53:41.000Z</time>
      </trkpt>
      <trkpt lat="45.86593" lon="6.76266">
        <ele>1377</ele>
        <time>2000-01-01T05:53:51.000Z</time>
      </trkpt>
      <trkpt lat="45.86582" lon="6.76222">
        <ele>1377</ele>
        <time>2000-01-01T05:54:01.000Z</time>
      </trkpt>
      <trkpt lat="45.8657" lon="6.76177">
        <ele>1380</ele>
        <time>2000-01-01T05:54:11.000Z</time>
      </trkpt>
      <trkpt lat="45.86555" lon="6.76117">
        <ele>1381</ele>
        <time>2000-01-01T05:54:21.000Z</time>
      </trkpt>
      <trkpt lat="45.86552" lon="6.76082">
        <ele>1381</ele>
        <time>2000-01-01T05:54:31.000Z</time>
      </trkpt>
      <trkpt lat="45.86537" lon="6.76046">
        <ele>1376</ele>
        <time>2000-01-01T05:54:41.000Z</time>
      </trkpt>
      <trkpt lat="45.8651" lon="6.75983">
        <ele>1374</ele>
        <time>2000-01-01T05:54:51.000Z</time>
      </trkpt>
      <trkpt lat="45.86517" lon="6.75938">
        <ele>1372</ele>
        <time>2000-01-01T05:55:01.000Z</time>
      </trkpt>
      <trkpt lat="45.86525" lon="6.75893">
        <ele>1370</ele>
        <time>2000-01-01T05:55:11.000Z</time>
      </trkpt>
      <trkpt lat="45.86533" lon="6.75842">
        <ele>1364</ele>
        <time>2000-01-01T05:55:21.000Z</time>
      </trkpt>
      <trkpt lat="45.86527" lon="6.75797">
        <ele>1357</ele>
        <time>2000-01-01T05:55:31.000Z</time>
      </trkpt>
      <trkpt lat="45.86522" lon="6.75751">
        <ele>1347</ele>
        <time>2000-01-01T05:55:41.000Z</time>
      </trkpt>
      <trkpt lat="45.86515" lon="6.75699">
        <ele>1332</ele>
        <time>2000-01-01T05:55:51.000Z</time>
      </trkpt>
      <trkpt lat="45.86515" lon="6.75662">
        <ele>1326</ele>
        <time>2000-01-01T05:56:01.000Z</time>
      </trkpt>
      <trkpt lat="45.86514" lon="6.75615">
        <ele>1319</ele>
        <time>2000-01-01T05:56:11.000Z</time>
      </trkpt>
      <trkpt lat="45.86501" lon="6.75585">
        <ele>1317</ele>
        <time>2000-01-01T05:56:21.000Z</time>
      </trkpt>
      <trkpt lat="45.86498" lon="6.75561">
        <ele>1314.9</ele>
        <time>2000-01-01T05:56:31.000Z</time>
      </trkpt>
      <trkpt lat="45.86524" lon="6.75544">
        <ele>1316</ele>
        <time>2000-01-01T05:56:41.000Z</time>
      </trkpt>
      <trkpt lat="45.86539" lon="6.75519">
        <ele>1315</ele>
        <time>2000-01-01T05:56:51.000Z</time>
      </trkpt>
      <trkpt lat="45.8655" lon="6.75493">
        <ele>1315</ele>
        <time>2000-01-01T05:57:01.000Z</time>
      </trkpt>
      <trkpt lat="45.86571" lon="6.75479">
        <ele>1317</ele>
        <time>2000-01-01T05:57:11.000Z</time>
      </trkpt>
      <trkpt lat="45.86571" lon="6.7544">
        <ele>1315</ele>
        <time>2000-01-01T05:57:21.000Z</time>
      </trkpt>
      <trkpt lat="45.86571" lon="6.75388">
        <ele>1316</ele>
        <time>2000-01-01T05:57:31.000Z</time>
      </trkpt>
      <trkpt lat="45.86601" lon="6.75338">
        <ele>1315</ele>
        <time>2000-01-01T05:57:41.000Z</time>
      </trkpt>
      <trkpt lat="45.86621" lon="6.75288">
        <ele>1315</ele>
        <time>2000-01-01T05:57:51.000Z</time>
      </trkpt>
      <trkpt lat="45.86652" lon="6.7528">
        <ele>1322</ele>
        <time>2000-01-01T05:58:01.000Z</time>
      </trkpt>
      <trkpt lat="45.86679" lon="6.75269">
        <ele>1328</ele>
        <time>2000-01-01T05:58:11.000Z</time>
      </trkpt>
      <trkpt lat="45.86691" lon="6.7523">
        <ele>1335</ele>
        <time>2000-01-01T05:58:21.000Z</time>
      </trkpt>
      <trkpt lat="45.86712" lon="6.7519">
        <ele>1343</ele>
        <time>2000-01-01T05:58:31.000Z</time>
      </trkpt>
      <trkpt lat="45.8671" lon="6.75165">
        <ele>1344.8</ele>
        <time>2000-01-01T05:58:41.000Z</time>
      </trkpt>
      <trkpt lat="45.86724" lon="6.75136">
        <ele>1349</ele>
        <time>2000-01-01T05:58:51.000Z</time>
      </trkpt>
      <trkpt lat="45.86754" lon="6.75092">
        <ele>1365</ele>
        <time>2000-01-01T05:59:01.000Z</time>
      </trkpt>
      <trkpt lat="45.86771" lon="6.75132">
        <ele>1375</ele>
        <time>2000-01-01T05:59:11.000Z</time>
      </trkpt>
      <trkpt lat="45.8681" lon="6.75109">
        <ele>1391</ele>
        <time>2000-01-01T05:59:21.000Z</time>
      </trkpt>
      <trkpt lat="45.86818" lon="6.75134">
        <ele>1398</ele>
        <time>2000-01-01T05:59:31.000Z</time>
      </trkpt>
      <trkpt lat="45.86807" lon="6.75168">
        <ele>1399</ele>
        <time>2000-01-01T05:59:41.000Z</time>
      </trkpt>
      <trkpt lat="45.86829" lon="6.75149">
        <ele>1406</ele>
        <time>2000-01-01T05:59:51.000Z</time>
      </trkpt>
      <trkpt lat="45.86861" lon="6.75144">
        <ele>1428</ele>
        <time>2000-01-01T06:00:01.000Z</time>
      </trkpt>
      <trkpt lat="45.8688" lon="6.75107">
        <ele>1430</ele>
        <time>2000-01-01T06:00:11.000Z</time>
      </trkpt>
      <trkpt lat="45.86886" lon="6.75061">
        <ele>1441</ele>
        <time>2000-01-01T06:00:21.000Z</time>
      </trkpt>
      <trkpt lat="45.86872" lon="6.75027">
        <ele>1453</ele>
        <time>2000-01-01T06:00:31.000Z</time>
      </trkpt>
      <trkpt lat="45.86852" lon="6.74979">
        <ele>1464</ele>
        <time>2000-01-01T06:00:41.000Z</time>
      </trkpt>
      <trkpt lat="45.86842" lon="6.74936">
        <ele>1472</ele>
        <time>2000-01-01T06:00:51.000Z</time>
      </trkpt>
      <trkpt lat="45.86833" lon="6.74884">
        <ele>1478</ele>
        <time>2000-01-01T06:01:01.000Z</time>
      </trkpt>
      <trkpt lat="45.8683" lon="6.74848">
        <ele>1483</ele>
        <time>2000-01-01T06:01:11.000Z</time>
      </trkpt>
      <trkpt lat="45.86826" lon="6.74805">
        <ele>1491</ele>
        <time>2000-01-01T06:01:21.000Z</time>
      </trkpt>
      <trkpt lat="45.86819" lon="6.7477">
        <ele>1491</ele>
        <time>2000-01-01T06:01:31.000Z</time>
      </trkpt>
      <trkpt lat="45.8681" lon="6.74728">
        <ele>1491</ele>
        <time>2000-01-01T06:01:41.000Z</time>
      </trkpt>
      <trkpt lat="45.86832" lon="6.74693">
        <ele>1506</ele>
        <time>2000-01-01T06:01:51.000Z</time>
      </trkpt>
      <trkpt lat="45.86836" lon="6.74648">
        <ele>1516</ele>
        <time>2000-01-01T06:02:01.000Z</time>
      </trkpt>
      <trkpt lat="45.86824" lon="6.74605">
        <ele>1526</ele>
        <time>2000-01-01T06:02:11.000Z</time>
      </trkpt>
      <trkpt lat="45.86812" lon="6.74562">
        <ele>1529</ele>
        <time>2000-01-01T06:02:21.000Z</time>
      </trkpt>
      <trkpt lat="45.86798" lon="6.74511">
        <ele>1532</ele>
        <time>2000-01-01T06:02:31.000Z</time>
      </trkpt>
      <trkpt lat="45.86804" lon="6.74489">
        <ele>1536.4</ele>
        <time>2000-01-01T06:02:41.000Z</time>
      </trkpt>
      <trkpt lat="45.86845" lon="6.74475">
        <ele>1549</ele>
        <time>2000-01-01T06:02:51.000Z</time>
      </trkpt>
      <trkpt lat="45.86872" lon="6.74452">
        <ele>1561</ele>
        <time>2000-01-01T06:03:01.000Z</time>
      </trkpt>
      <trkpt lat="45.869" lon="6.7443">
        <ele>1565</ele>
        <time>2000-01-01T06:03:11.000Z</time>
      </trkpt>
      <trkpt lat="45.86928" lon="6.74406">
        <ele>1574</ele>
        <time>2000-01-01T06:03:21.000Z</time>
      </trkpt>
      <trkpt lat="45.86955" lon="6.74352">
        <ele>1587</ele>
        <time>2000-01-01T06:03:31.000Z</time>
      </trkpt>
      <trkpt lat="45.86986" lon="6.74312">
        <ele>1596</ele>
        <time>2000-01-01T06:03:41.000Z</time>
      </trkpt>
      <trkpt lat="45.87011" lon="6.7431">
        <ele>1600</ele>
        <time>2000-01-01T06:03:51.000Z</time>
      </trkpt>
      <trkpt lat="45.87038" lon="6.74307">
        <ele>1605</ele>
        <time>2000-01-01T06:04:01.000Z</time>
      </trkpt>
      <trkpt lat="45.87047" lon="6.74263">
        <ele>1605</ele>
        <time>2000-01-01T06:04:11.000Z</time>
      </trkpt>
      <trkpt lat="45.87056" lon="6.7422">
        <ele>1601</ele>
        <time>2000-01-01T06:04:21.000Z</time>
      </trkpt>
      <trkpt lat="45.87066" lon="6.74173">
        <ele>1599</ele>
        <time>2000-01-01T06:04:31.000Z</time>
      </trkpt>
      <trkpt lat="45.87082" lon="6.74132">
        <ele>1614</ele>
        <time>2000-01-01T06:04:41.000Z</time>
      </trkpt>
      <trkpt lat="45.87098" lon="6.74141">
        <ele>1607.2</ele>
        <time>2000-01-01T06:04:51.000Z</time>
      </trkpt>
      <trkpt lat="45.87124" lon="6.74235">
        <ele>1629</ele>
        <time>2000-01-01T06:05:01.000Z</time>
      </trkpt>
      <trkpt lat="45.87138" lon="6.7427">
        <ele>1640</ele>
        <time>2000-01-01T06:05:11.000Z</time>
      </trkpt>
      <trkpt lat="45.87161" lon="6.74326">
        <ele>1659</ele>
        <time>2000-01-01T06:05:21.000Z</time>
      </trkpt>
      <trkpt lat="45.87182" lon="6.74365">
        <ele>1672</ele>
        <time>2000-01-01T06:05:31.000Z</time>
      </trkpt>
      <trkpt lat="45.87203" lon="6.74404">
        <ele>1687</ele>
        <time>2000-01-01T06:05:41.000Z</time>
      </trkpt>
      <trkpt lat="45.87238" lon="6.74469">
        <ele>1706</ele>
        <time>2000-01-01T06:05:51.000Z</time>
      </trkpt>
      <trkpt lat="45.87244" lon="6.74434">
        <ele>1707</ele>
        <time>2000-01-01T06:06:01.000Z</time>
      </trkpt>
      <trkpt lat="45.8725" lon="6.74396">
        <ele>1708</ele>
        <time>2000-01-01T06:06:11.000Z</time>
      </trkpt>
      <trkpt lat="45.87271" lon="6.74379">
        <ele>1714</ele>
        <time>2000-01-01T06:06:21.000Z</time>
      </trkpt>
      <trkpt lat="45.87295" lon="6.74361">
        <ele>1718</ele>
        <time>2000-01-01T06:06:31.000Z</time>
      </trkpt>
      <trkpt lat="45.87302" lon="6.74305">
        <ele>1720</ele>
        <time>2000-01-01T06:06:41.000Z</time>
      </trkpt>
      <trkpt lat="45.87317" lon="6.74272">
        <ele>1723</ele>
        <time>2000-01-01T06:06:51.000Z</time>
      </trkpt>
      <trkpt lat="45.87338" lon="6.74227">
        <ele>1728</ele>
        <time>2000-01-01T06:07:01.000Z</time>
      </trkpt>
      <trkpt lat="45.87356" lon="6.7425">
        <ele>1733</ele>
        <time>2000-01-01T06:07:11.000Z</time>
      </trkpt>
      <trkpt lat="45.87375" lon="6.74274">
        <ele>1739</ele>
        <time>2000-01-01T06:07:21.000Z</time>
      </trkpt>
      <trkpt lat="45.87404" lon="6.74288">
        <ele>1749</ele>
        <time>2000-01-01T06:07:31.000Z</time>
      </trkpt>
      <trkpt lat="45.87461" lon="6.74314">
        <ele>1770</ele>
        <time>2000-01-01T06:07:41.000Z</time>
      </trkpt>
      <trkpt lat="45.87498" lon="6.74315">
        <ele>1780</ele>
        <time>2000-01-01T06:07:51.000Z</time>
      </trkpt>
      <trkpt lat="45.87518" lon="6.74331">
        <ele>1788</ele>
        <time>2000-01-01T06:08:01.000Z</time>
      </trkpt>
      <trkpt lat="45.87542" lon="6.7434">
        <ele>1795</ele>
        <time>2000-01-01T06:08:11.000Z</time>
      </trkpt>
      <trkpt lat="45.87571" lon="6.74351">
        <ele>1804</ele>
        <time>2000-01-01T06:08:21.000Z</time>
      </trkpt>
      <trkpt lat="45.87599" lon="6.74352">
        <ele>1809</ele>
        <time>2000-01-01T06:08:31.000Z</time>
      </trkpt>
      <trkpt lat="45.87641" lon="6.74353">
        <ele>1821</ele>
        <time>2000-01-01T06:08:41.000Z</time>
      </trkpt>
      <trkpt lat="45.8766" lon="6.7439">
        <ele>1824</ele>
        <time>2000-01-01T06:08:51.000Z</time>
      </trkpt>
      <trkpt lat="45.87679" lon="6.74426">
        <ele>1830</ele>
        <time>2000-01-01T06:09:01.000Z</time>
      </trkpt>
      <trkpt lat="45.877" lon="6.74467">
        <ele>1838</ele>
        <time>2000-01-01T06:09:11.000Z</time>
      </trkpt>
      <trkpt lat="45.8772" lon="6.745">
        <ele>1838</ele>
        <time>2000-01-01T06:09:21.000Z</time>
      </trkpt>
      <trkpt lat="45.87755" lon="6.74558">
        <ele>1843</ele>
        <time>2000-01-01T06:09:31.000Z</time>
      </trkpt>
      <trkpt lat="45.87784" lon="6.74574">
        <ele>1845</ele>
        <time>2000-01-01T06:09:41.000Z</time>
      </trkpt>
      <trkpt lat="45.87842" lon="6.74606">
        <ele>1851</ele>
        <time>2000-01-01T06:09:51.000Z</time>
      </trkpt>
      <trkpt lat="45.87879" lon="6.74641">
        <ele>1855</ele>
        <time>2000-01-01T06:10:01.000Z</time>
      </trkpt>
      <trkpt lat="45.87899" lon="6.74676">
        <ele>1857</ele>
        <time>2000-01-01T06:10:11.000Z</time>
      </trkpt>
      <trkpt lat="45.87937" lon="6.74744">
        <ele>1861</ele>
        <time>2000-01-01T06:10:21.000Z</time>
      </trkpt>
      <trkpt lat="45.87943" lon="6.74779">
        <ele>1863</ele>
        <time>2000-01-01T06:10:31.000Z</time>
      </trkpt>
      <trkpt lat="45.87951" lon="6.74821">
        <ele>1867</ele>
        <time>2000-01-01T06:10:41.000Z</time>
      </trkpt>
      <trkpt lat="45.8798" lon="6.74843">
        <ele>1870</ele>
        <time>2000-01-01T06:10:51.000Z</time>
      </trkpt>
      <trkpt lat="45.88008" lon="6.74866">
        <ele>1872</ele>
        <time>2000-01-01T06:11:01.000Z</time>
      </trkpt>
      <trkpt lat="45.88045" lon="6.74895">
        <ele>1877</ele>
        <time>2000-01-01T06:11:11.000Z</time>
      </trkpt>
      <trkpt lat="45.88071" lon="6.74906">
        <ele>1876</ele>
        <time>2000-01-01T06:11:21.000Z</time>
      </trkpt>
      <trkpt lat="45.88104" lon="6.7492">
        <ele>1876</ele>
        <time>2000-01-01T06:11:31.000Z</time>
      </trkpt>
      <trkpt lat="45.88134" lon="6.74922">
        <ele>1872</ele>
        <time>2000-01-01T06:11:41.000Z</time>
      </trkpt>
      <trkpt lat="45.88172" lon="6.74902">
        <ele>1872</ele>
        <time>2000-01-01T06:11:51.000Z</time>
      </trkpt>
      <trkpt lat="45.88196" lon="6.74946">
        <ele>1872</ele>
        <time>2000-01-01T06:12:01.000Z</time>
      </trkpt>
      <trkpt lat="45.88213" lon="6.74955">
        <ele>1870.8</ele>
        <time>2000-01-01T06:12:11.000Z</time>
      </trkpt>
      <trkpt lat="45.88231" lon="6.74954">
        <ele>1869</ele>
        <time>2000-01-01T06:12:21.000Z</time>
      </trkpt>
      <trkpt lat="45.88254" lon="6.74962">
        <ele>1866</ele>
        <time>2000-01-01T06:12:31.000Z</time>
      </trkpt>
      <trkpt lat="45.88279" lon="6.74971">
        <ele>1865</ele>
        <time>2000-01-01T06:12:41.000Z</time>
      </trkpt>
      <trkpt lat="45.88298" lon="6.7499">
        <ele>1864</ele>
        <time>2000-01-01T06:12:51.000Z</time>
      </trkpt>
      <trkpt lat="45.88318" lon="6.75009">
        <ele>1864</ele>
        <time>2000-01-01T06:13:01.000Z</time>
      </trkpt>
      <trkpt lat="45.88361" lon="6.75033">
        <ele>1859</ele>
        <time>2000-01-01T06:13:11.000Z</time>
      </trkpt>
      <trkpt lat="45.88381" lon="6.75062">
        <ele>1858</ele>
        <time>2000-01-01T06:13:21.000Z</time>
      </trkpt>
      <trkpt lat="45.8841" lon="6.75104">
        <ele>1858</ele>
        <time>2000-01-01T06:13:31.000Z</time>
      </trkpt>
      <trkpt lat="45.88422" lon="6.75135">
        <ele>1857</ele>
        <time>2000-01-01T06:13:41.000Z</time>
      </trkpt>
      <trkpt lat="45.88435" lon="6.7517">
        <ele>1857</ele>
        <time>2000-01-01T06:13:51.000Z</time>
      </trkpt>
      <trkpt lat="45.88452" lon="6.75195">
        <ele>1858</ele>
        <time>2000-01-01T06:14:01.000Z</time>
      </trkpt>
      <trkpt lat="45.88472" lon="6.75223">
        <ele>1858</ele>
        <time>2000-01-01T06:14:11.000Z</time>
      </trkpt>
      <trkpt lat="45.88498" lon="6.75228">
        <ele>1856</ele>
        <time>2000-01-01T06:14:21.000Z</time>
      </trkpt>
      <trkpt lat="45.88531" lon="6.75234">
        <ele>1851</ele>
        <time>2000-01-01T06:14:31.000Z</time>
      </trkpt>
      <trkpt lat="45.88554" lon="6.75249">
        <ele>1848</ele>
        <time>2000-01-01T06:14:41.000Z</time>
      </trkpt>
      <trkpt lat="45.88581" lon="6.75266">
        <ele>1848</ele>
        <time>2000-01-01T06:14:51.000Z</time>
      </trkpt>
      <trkpt lat="45.8862" lon="6.75249">
        <ele>1848</ele>
        <time>2000-01-01T06:15:01.000Z</time>
      </trkpt>
      <trkpt lat="45.88639" lon="6.75279">
        <ele>1850</ele>
        <time>2000-01-01T06:15:11.000Z</time>
      </trkpt>
      <trkpt lat="45.88657" lon="6.75285">
        <ele>1851.4</ele>
        <time>2000-01-01T06:15:21.000Z</time>
      </trkpt>
      <trkpt lat="45.88755" lon="6.7533">
        <ele>1858</ele>
        <time>2000-01-01T06:15:31.000Z</time>
      </trkpt>
      <trkpt lat="45.88772" lon="6.75359">
        <ele>1862</ele>
        <time>2000-01-01T06:15:41.000Z</time>
      </trkpt>
      <trkpt lat="45.88809" lon="6.75345">
        <ele>1865</ele>
        <time>2000-01-01T06:15:51.000Z</time>
      </trkpt>
      <trkpt lat="45.88812" lon="6.75379">
        <ele>1867</ele>
        <time>2000-01-01T06:16:01.000Z</time>
      </trkpt>
      <trkpt lat="45.88836" lon="6.7535">
        <ele>1869</ele>
        <time>2000-01-01T06:16:11.000Z</time>
      </trkpt>
      <trkpt lat="45.88854" lon="6.75383">
        <ele>1879</ele>
        <time>2000-01-01T06:16:21.000Z</time>
      </trkpt>
      <trkpt lat="45.88882" lon="6.75373">
        <ele>1881</ele>
        <time>2000-01-01T06:16:31.000Z</time>
      </trkpt>
      <trkpt lat="45.88925" lon="6.75357">
        <ele>1883</ele>
        <time>2000-01-01T06:16:41.000Z</time>
      </trkpt>
      <trkpt lat="45.88937" lon="6.75378">
        <ele>1885</ele>
        <time>2000-01-01T06:16:51.000Z</time>
      </trkpt>
      <trkpt lat="45.88968" lon="6.75382">
        <ele>1884</ele>
        <time>2000-01-01T06:17:01.000Z</time>
      </trkpt>
      <trkpt lat="45.8899" lon="6.75352">
        <ele>1884</ele>
        <time>2000-01-01T06:17:11.000Z</time>
      </trkpt>
      <trkpt lat="45.89007" lon="6.75317">
        <ele>1884</ele>
        <time>2000-01-01T06:17:21.000Z</time>
      </trkpt>
      <trkpt lat="45.8903" lon="6.75301">
        <ele>1884</ele>
        <time>2000-01-01T06:17:31.000Z</time>
      </trkpt>
      <trkpt lat="45.89057" lon="6.75281">
        <ele>1886</ele>
        <time>2000-01-01T06:17:41.000Z</time>
      </trkpt>
      <trkpt lat="45.89092" lon="6.75248">
        <ele>1892</ele>
        <time>2000-01-01T06:17:51.000Z</time>
      </trkpt>
      <trkpt lat="45.89116" lon="6.75243">
        <ele>1892</ele>
        <time>2000-01-01T06:18:01.000Z</time>
      </trkpt>
      <trkpt lat="45.89121" lon="6.7522">
        <ele>1894.8</ele>
        <time>2000-01-01T06:18:11.000Z</time>
      </trkpt>
      <trkpt lat="45.89162" lon="6.75189">
        <ele>1902</ele>
        <time>2000-01-01T06:18:21.000Z</time>
      </trkpt>
      <trkpt lat="45.89186" lon="6.75168">
        <ele>1908</ele>
        <time>2000-01-01T06:18:31.000Z</time>
      </trkpt>
      <trkpt lat="45.89224" lon="6.75135">
        <ele>1912</ele>
        <time>2000-01-01T06:18:41.000Z</time>
      </trkpt>
      <trkpt lat="45.89237" lon="6.75159">
        <ele>1917</ele>
        <time>2000-01-01T06:18:51.000Z</time>
      </trkpt>
      <trkpt lat="45.89261" lon="6.75144">
        <ele>1929</ele>
        <time>2000-01-01T06:19:01.000Z</time>
      </trkpt>
      <trkpt lat="45.89265" lon="6.75162">
        <ele>1925.3</ele>
        <time>2000-01-01T06:19:11.000Z</time>
      </trkpt>
      <trkpt lat="45.89295" lon="6.75122">
        <ele>1937</ele>
        <time>2000-01-01T06:19:21.000Z</time>
      </trkpt>
      <trkpt lat="45.89316" lon="6.75102">
        <ele>1943</ele>
        <time>2000-01-01T06:19:31.000Z</time>
      </trkpt>
      <trkpt lat="45.89341" lon="6.75079">
        <ele>1954</ele>
        <time>2000-01-01T06:19:41.000Z</time>
      </trkpt>
      <trkpt lat="45.89384" lon="6.75077">
        <ele>1962</ele>
        <time>2000-01-01T06:19:51.000Z</time>
      </trkpt>
      <trkpt lat="45.89418" lon="6.75052">
        <ele>1963</ele>
        <time>2000-01-01T06:20:01.000Z</time>
      </trkpt>
      <trkpt lat="45.89435" lon="6.75058">
        <ele>1959.2</ele>
        <time>2000-01-01T06:20:11.000Z</time>
      </trkpt>
      <trkpt lat="45.89462" lon="6.75034">
        <ele>1963</ele>
        <time>2000-01-01T06:20:21.000Z</time>
      </trkpt>
      <trkpt lat="45.89479" lon="6.75037">
        <ele>1960.2</ele>
        <time>2000-01-01T06:20:31.000Z</time>
      </trkpt>
      <trkpt lat="45.89523" lon="6.75021">
        <ele>1960</ele>
        <time>2000-01-01T06:20:41.000Z</time>
      </trkpt>
      <trkpt lat="45.89543" lon="6.75003">
        <ele>1958</ele>
        <time>2000-01-01T06:20:51.000Z</time>
      </trkpt>
      <trkpt lat="45.8957" lon="6.75023">
        <ele>1957</ele>
        <time>2000-01-01T06:21:01.000Z</time>
      </trkpt>
      <trkpt lat="45.89593" lon="6.7501">
        <ele>1955</ele>
        <time>2000-01-01T06:21:11.000Z</time>
      </trkpt>
      <trkpt lat="45.89621" lon="6.75014">
        <ele>1951</ele>
        <time>2000-01-01T06:21:21.000Z</time>
      </trkpt>
      <trkpt lat="45.8964" lon="6.75005">
        <ele>1945</ele>
        <time>2000-01-01T06:21:31.000Z</time>
      </trkpt>
      <trkpt lat="45.8964" lon="6.75034">
        <ele>1945</ele>
        <time>2000-01-01T06:21:41.000Z</time>
      </trkpt>
      <trkpt lat="45.89665" lon="6.75022">
        <ele>1938</ele>
        <time>2000-01-01T06:21:51.000Z</time>
      </trkpt>
      <trkpt lat="45.89689" lon="6.75067">
        <ele>1924</ele>
        <time>2000-01-01T06:22:01.000Z</time>
      </trkpt>
      <trkpt lat="45.89699" lon="6.75047">
        <ele>1915.3</ele>
        <time>2000-01-01T06:22:11.000Z</time>
      </trkpt>
      <trkpt lat="45.8971" lon="6.75075">
        <ele>1915</ele>
        <time>2000-01-01T06:22:21.000Z</time>
      </trkpt>
      <trkpt lat="45.89694" lon="6.75097">
        <ele>1903</ele>
        <time>2000-01-01T06:22:31.000Z</time>
      </trkpt>
      <trkpt lat="45.89725" lon="6.75073">
        <ele>1899</ele>
        <time>2000-01-01T06:22:41.000Z</time>
      </trkpt>
      <trkpt lat="45.89722" lon="6.75097">
        <ele>1887.2</ele>
        <time>2000-01-01T06:22:51.000Z</time>
      </trkpt>
      <trkpt lat="45.89733" lon="6.75082">
        <ele>1890</ele>
        <time>2000-01-01T06:23:01.000Z</time>
      </trkpt>
      <trkpt lat="45.89736" lon="6.7511">
        <ele>1887</ele>
        <time>2000-01-01T06:23:11.000Z</time>
      </trkpt>
      <trkpt lat="45.89747" lon="6.75082">
        <ele>1884</ele>
        <time>2000-01-01T06:23:21.000Z</time>
      </trkpt>
      <trkpt lat="45.89754" lon="6.75105">
        <ele>1865.1</ele>
        <time>2000-01-01T06:23:31.000Z</time>
      </trkpt>
      <trkpt lat="45.89763" lon="6.75089">
        <ele>1869</ele>
        <time>2000-01-01T06:23:41.000Z</time>
      </trkpt>
      <trkpt lat="45.89762" lon="6.75111">
        <ele>1858.6</ele>
        <time>2000-01-01T06:23:51.000Z</time>
      </trkpt>
      <trkpt lat="45.89781" lon="6.75089">
        <ele>1854</ele>
        <time>2000-01-01T06:24:01.000Z</time>
      </trkpt>
      <trkpt lat="45.8978" lon="6.75112">
        <ele>1848.9</ele>
        <time>2000-01-01T06:24:11.000Z</time>
      </trkpt>
      <trkpt lat="45.898" lon="6.7509">
        <ele>1849</ele>
        <time>2000-01-01T06:24:21.000Z</time>
      </trkpt>
      <trkpt lat="45.8981" lon="6.75106">
        <ele>1842.8</ele>
        <time>2000-01-01T06:24:31.000Z</time>
      </trkpt>
      <trkpt lat="45.89831" lon="6.75087">
        <ele>1841</ele>
        <time>2000-01-01T06:24:41.000Z</time>
      </trkpt>
      <trkpt lat="45.8984" lon="6.75106">
        <ele>1836.3</ele>
        <time>2000-01-01T06:24:51.000Z</time>
      </trkpt>
      <trkpt lat="45.89851" lon="6.75109">
        <ele>1832</ele>
        <time>2000-01-01T06:25:01.000Z</time>
      </trkpt>
      <trkpt lat="45.8984" lon="6.75134">
        <ele>1830</ele>
        <time>2000-01-01T06:25:11.000Z</time>
      </trkpt>
      <trkpt lat="45.89866" lon="6.75145">
        <ele>1817</ele>
        <time>2000-01-01T06:25:21.000Z</time>
      </trkpt>
      <trkpt lat="45.89869" lon="6.75119">
        <ele>1819.1</ele>
        <time>2000-01-01T06:25:31.000Z</time>
      </trkpt>
      <trkpt lat="45.89873" lon="6.75139">
        <ele>1817</ele>
        <time>2000-01-01T06:25:41.000Z</time>
      </trkpt>
      <trkpt lat="45.8988" lon="6.75119">
        <ele>1813.6</ele>
        <time>2000-01-01T06:25:51.000Z</time>
      </trkpt>
      <trkpt lat="45.89885" lon="6.75138">
        <ele>1813</ele>
        <time>2000-01-01T06:26:01.000Z</time>
      </trkpt>
      <trkpt lat="45.89893" lon="6.75112">
        <ele>1810</ele>
        <time>2000-01-01T06:26:11.000Z</time>
      </trkpt>
      <trkpt lat="45.899" lon="6.75153">
        <ele>1806</ele>
        <time>2000-01-01T06:26:21.000Z</time>
      </trkpt>
      <trkpt lat="45.89875" lon="6.75168">
        <ele>1803</ele>
        <time>2000-01-01T06:26:31.000Z</time>
      </trkpt>
      <trkpt lat="45.89911" lon="6.75169">
        <ele>1792</ele>
        <time>2000-01-01T06:26:41.000Z</time>
      </trkpt>
      <trkpt lat="45.89933" lon="6.75151">
        <ele>1785</ele>
        <time>2000-01-01T06:26:51.000Z</time>
      </trkpt>
      <trkpt lat="45.89931" lon="6.75112">
        <ele>1783</ele>
        <time>2000-01-01T06:27:01.000Z</time>
      </trkpt>
      <trkpt lat="45.89946" lon="6.75117">
        <ele>1777.2</ele>
        <time>2000-01-01T06:27:11.000Z</time>
      </trkpt>
      <trkpt lat="45.89938" lon="6.75024">
        <ele>1756</ele>
        <time>2000-01-01T06:27:21.000Z</time>
      </trkpt>
      <trkpt lat="45.8996" lon="6.7505">
        <ele>1754</ele>
        <time>2000-01-01T06:27:31.000Z</time>
      </trkpt>
      <trkpt lat="45.89971" lon="6.75081">
        <ele>1756</ele>
        <time>2000-01-01T06:27:41.000Z</time>
      </trkpt>
      <trkpt lat="45.89984" lon="6.75116">
        <ele>1744</ele>
        <time>2000-01-01T06:27:51.000Z</time>
      </trkpt>
      <trkpt lat="45.90005" lon="6.75097">
        <ele>1732</ele>
        <time>2000-01-01T06:28:01.000Z</time>
      </trkpt>
      <trkpt lat="45.90028" lon="6.75076">
        <ele>1722</ele>
        <time>2000-01-01T06:28:11.000Z</time>
      </trkpt>
      <trkpt lat="45.90047" lon="6.75098">
        <ele>1713</ele>
        <time>2000-01-01T06:28:21.000Z</time>
      </trkpt>
      <trkpt lat="45.90067" lon="6.75122">
        <ele>1711</ele>
        <time>2000-01-01T06:28:31.000Z</time>
      </trkpt>
      <trkpt lat="45.90089" lon="6.75105">
        <ele>1706</ele>
        <time>2000-01-01T06:28:41.000Z</time>
      </trkpt>
      <trkpt lat="45.90068" lon="6.75083">
        <ele>1701</ele>
        <time>2000-01-01T06:28:51.000Z</time>
      </trkpt>
      <trkpt lat="45.90043" lon="6.75056">
        <ele>1693</ele>
        <time>2000-01-01T06:29:01.000Z</time>
      </trkpt>
      <trkpt lat="45.90081" lon="6.75064">
        <ele>1692</ele>
        <time>2000-01-01T06:29:11.000Z</time>
      </trkpt>
      <trkpt lat="45.90108" lon="6.75091">
        <ele>1691</ele>
        <time>2000-01-01T06:29:21.000Z</time>
      </trkpt>
      <trkpt lat="45.90112" lon="6.75156">
        <ele>1686</ele>
        <time>2000-01-01T06:29:31.000Z</time>
      </trkpt>
      <trkpt lat="45.90127" lon="6.75177">
        <ele>1678</ele>
        <time>2000-01-01T06:29:41.000Z</time>
      </trkpt>
      <trkpt lat="45.90156" lon="6.75156">
        <ele>1676</ele>
        <time>2000-01-01T06:29:51.000Z</time>
      </trkpt>
      <trkpt lat="45.90147" lon="6.75184">
        <ele>1668</ele>
        <time>2000-01-01T06:30:01.000Z</time>
      </trkpt>
      <trkpt lat="45.90171" lon="6.75167">
        <ele>1663</ele>
        <time>2000-01-01T06:30:11.000Z</time>
      </trkpt>
      <trkpt lat="45.90174" lon="6.7515">
        <ele>1663.2</ele>
        <time>2000-01-01T06:30:21.000Z</time>
      </trkpt>
      <trkpt lat="45.90199" lon="6.75155">
        <ele>1655</ele>
        <time>2000-01-01T06:30:31.000Z</time>
      </trkpt>
      <trkpt lat="45.90196" lon="6.75101">
        <ele>1654</ele>
        <time>2000-01-01T06:30:41.000Z</time>
      </trkpt>
      <trkpt lat="45.90216" lon="6.75117">
        <ele>1647</ele>
        <time>2000-01-01T06:30:51.000Z</time>
      </trkpt>
      <trkpt lat="45.90237" lon="6.75134">
        <ele>1643</ele>
        <time>2000-01-01T06:31:01.000Z</time>
      </trkpt>
      <trkpt lat="45.90225" lon="6.75101">
        <ele>1639</ele>
        <time>2000-01-01T06:31:11.000Z</time>
      </trkpt>
      <trkpt lat="45.90241" lon="6.7511">
        <ele>1628.9</ele>
        <time>2000-01-01T06:31:21.000Z</time>
      </trkpt>
      <trkpt lat="45.90235" lon="6.75083">
        <ele>1627</ele>
        <time>2000-01-01T06:31:31.000Z</time>
      </trkpt>
      <trkpt lat="45.90257" lon="6.75102">
        <ele>1622</ele>
        <time>2000-01-01T06:31:41.000Z</time>
      </trkpt>
      <trkpt lat="45.9027" lon="6.75131">
        <ele>1612</ele>
        <time>2000-01-01T06:31:51.000Z</time>
      </trkpt>
      <trkpt lat="45.90271" lon="6.75103">
        <ele>1612</ele>
        <time>2000-01-01T06:32:01.000Z</time>
      </trkpt>
      <trkpt lat="45.90251" lon="6.75071">
        <ele>1612</ele>
        <time>2000-01-01T06:32:11.000Z</time>
      </trkpt>
      <trkpt lat="45.90293" lon="6.75095">
        <ele>1606</ele>
        <time>2000-01-01T06:32:21.000Z</time>
      </trkpt>
      <trkpt lat="45.90299" lon="6.7513">
        <ele>1600</ele>
        <time>2000-01-01T06:32:31.000Z</time>
      </trkpt>
      <trkpt lat="45.90306" lon="6.75169">
        <ele>1592</ele>
        <time>2000-01-01T06:32:41.000Z</time>
      </trkpt>
      <trkpt lat="45.90316" lon="6.75132">
        <ele>1590</ele>
        <time>2000-01-01T06:32:51.000Z</time>
      </trkpt>
      <trkpt lat="45.90329" lon="6.7508">
        <ele>1580</ele>
        <time>2000-01-01T06:33:01.000Z</time>
      </trkpt>
      <trkpt lat="45.90333" lon="6.75117">
        <ele>1580</ele>
        <time>2000-01-01T06:33:11.000Z</time>
      </trkpt>
      <trkpt lat="45.90338" lon="6.75163">
        <ele>1576</ele>
        <time>2000-01-01T06:33:21.000Z</time>
      </trkpt>
      <trkpt lat="45.90368" lon="6.75164">
        <ele>1569</ele>
        <time>2000-01-01T06:33:31.000Z</time>
      </trkpt>
      <trkpt lat="45.90388" lon="6.75141">
        <ele>1569</ele>
        <time>2000-01-01T06:33:41.000Z</time>
      </trkpt>
      <trkpt lat="45.90411" lon="6.75114">
        <ele>1569</ele>
        <time>2000-01-01T06:33:51.000Z</time>
      </trkpt>
      <trkpt lat="45.90448" lon="6.75094">
        <ele>1566</ele>
        <time>2000-01-01T06:34:01.000Z</time>
      </trkpt>
      <trkpt lat="45.90488" lon="6.75087">
        <ele>1558</ele>
        <time>2000-01-01T06:34:11.000Z</time>
      </trkpt>
      <trkpt lat="45.90513" lon="6.75106">
        <ele>1549</ele>
        <time>2000-01-01T06:34:21.000Z</time>
      </trkpt>
      <trkpt lat="45.90516" lon="6.75078">
        <ele>1549</ele>
        <time>2000-01-01T06:34:31.000Z</time>
      </trkpt>
      <trkpt lat="45.905" lon="6.7504">
        <ele>1547</ele>
        <time>2000-01-01T06:34:41.000Z</time>
      </trkpt>
      <trkpt lat="45.9053" lon="6.74999">
        <ele>1542</ele>
        <time>2000-01-01T06:34:51.000Z</time>
      </trkpt>
      <trkpt lat="45.90505" lon="6.75007">
        <ele>1542</ele>
        <time>2000-01-01T06:35:01.000Z</time>
      </trkpt>
      <trkpt lat="45.90473" lon="6.75016">
        <ele>1541</ele>
        <time>2000-01-01T06:35:11.000Z</time>
      </trkpt>
      <trkpt lat="45.90459" lon="6.75003">
        <ele>1538.1</ele>
        <time>2000-01-01T06:35:21.000Z</time>
      </trkpt>
      <trkpt lat="45.9043" lon="6.74999">
        <ele>1529</ele>
        <time>2000-01-01T06:35:31.000Z</time>
      </trkpt>
      <trkpt lat="45.9042" lon="6.75">
        <ele>1531.5</ele>
        <time>2000-01-01T06:35:41.000Z</time>
      </trkpt>
      <trkpt lat="45.90405" lon="6.74984">
        <ele>1521</ele>
        <time>2000-01-01T06:35:51.000Z</time>
      </trkpt>
      <trkpt lat="45.90389" lon="6.74943">
        <ele>1511</ele>
        <time>2000-01-01T06:36:01.000Z</time>
      </trkpt>
      <trkpt lat="45.90372" lon="6.74902">
        <ele>1504</ele>
        <time>2000-01-01T06:36:11.000Z</time>
      </trkpt>
      <trkpt lat="45.90351" lon="6.74848">
        <ele>1491</ele>
        <time>2000-01-01T06:36:21.000Z</time>
      </trkpt>
      <trkpt lat="45.90336" lon="6.74816">
        <ele>1486</ele>
        <time>2000-01-01T06:36:31.000Z</time>
      </trkpt>
      <trkpt lat="45.90317" lon="6.74772">
        <ele>1479</ele>
        <time>2000-01-01T06:36:41.000Z</time>
      </trkpt>
      <trkpt lat="45.90298" lon="6.74718">
        <ele>1472</ele>
        <time>2000-01-01T06:36:51.000Z</time>
      </trkpt>
      <trkpt lat="45.90288" lon="6.74677">
        <ele>1468</ele>
        <time>2000-01-01T06:37:01.000Z</time>
      </trkpt>
      <trkpt lat="45.9027" lon="6.74602">
        <ele>1467</ele>
        <time>2000-01-01T06:37:11.000Z</time>
      </trkpt>
      <trkpt lat="45.90258" lon="6.74565">
        <ele>1464</ele>
        <time>2000-01-01T06:37:21.000Z</time>
      </trkpt>
      <trkpt lat="45.90227" lon="6.74527">
        <ele>1462</ele>
        <time>2000-01-01T06:37:31.000Z</time>
      </trkpt>
      <trkpt lat="45.9022" lon="6.74488">
        <ele>1460</ele>
        <time>2000-01-01T06:37:41.000Z</time>
      </trkpt>
      <trkpt lat="45.90209" lon="6.7446">
        <ele>1459</ele>
        <time>2000-01-01T06:37:51.000Z</time>
      </trkpt>
      <trkpt lat="45.90205" lon="6.74424">
        <ele>1459</ele>
        <time>2000-01-01T06:38:01.000Z</time>
      </trkpt>
      <trkpt lat="45.902" lon="6.7438">
        <ele>1456</ele>
        <time>2000-01-01T06:38:11.000Z</time>
      </trkpt>
      <trkpt lat="45.90186" lon="6.74339">
        <ele>1453</ele>
        <time>2000-01-01T06:38:21.000Z</time>
      </trkpt>
      <trkpt lat="45.90172" lon="6.74299">
        <ele>1451</ele>
        <time>2000-01-01T06:38:31.000Z</time>
      </trkpt>
      <trkpt lat="45.90158" lon="6.74257">
        <ele>1445</ele>
        <time>2000-01-01T06:38:41.000Z</time>
      </trkpt>
      <trkpt lat="45.90147" lon="6.74215">
        <ele>1442</ele>
        <time>2000-01-01T06:38:51.000Z</time>
      </trkpt>
      <trkpt lat="45.90136" lon="6.74172">
        <ele>1436</ele>
        <time>2000-01-01T06:39:01.000Z</time>
      </trkpt>
      <trkpt lat="45.90125" lon="6.74129">
        <ele>1432</ele>
        <time>2000-01-01T06:39:11.000Z</time>
      </trkpt>
      <trkpt lat="45.90127" lon="6.74095">
        <ele>1432</ele>
        <time>2000-01-01T06:39:21.000Z</time>
      </trkpt>
      <trkpt lat="45.9013" lon="6.7406">
        <ele>1432</ele>
        <time>2000-01-01T06:39:31.000Z</time>
      </trkpt>
      <trkpt lat="45.90124" lon="6.74026">
        <ele>1432</ele>
        <time>2000-01-01T06:39:41.000Z</time>
      </trkpt>
      <trkpt lat="45.90117" lon="6.73991">
        <ele>1429</ele>
        <time>2000-01-01T06:39:51.000Z</time>
      </trkpt>
      <trkpt lat="45.90114" lon="6.73957">
        <ele>1428</ele>
        <time>2000-01-01T06:40:01.000Z</time>
      </trkpt>
      <trkpt lat="45.90114" lon="6.73911">
        <ele>1428</ele>
        <time>2000-01-01T06:40:11.000Z</time>
      </trkpt>
      <trkpt lat="45.90102" lon="6.73866">
        <ele>1422</ele>
        <time>2000-01-01T06:40:21.000Z</time>
      </trkpt>
      <trkpt lat="45.90102" lon="6.73812">
        <ele>1421</ele>
        <time>2000-01-01T06:40:31.000Z</time>
      </trkpt>
      <trkpt lat="45.90114" lon="6.73764">
        <ele>1420</ele>
        <time>2000-01-01T06:40:41.000Z</time>
      </trkpt>
      <trkpt lat="45.90112" lon="6.73722">
        <ele>1417</ele>
        <time>2000-01-01T06:40:51.000Z</time>
      </trkpt>
      <trkpt lat="45.90108" lon="6.73652">
        <ele>1405</ele>
        <time>2000-01-01T06:41:01.000Z</time>
      </trkpt>
      <trkpt lat="45.90096" lon="6.73644">
        <ele>1404</ele>
        <time>2000-01-01T06:41:11.000Z</time>
      </trkpt>
      <trkpt lat="45.9009" lon="6.73586">
        <ele>1392</ele>
        <time>2000-01-01T06:41:21.000Z</time>
      </trkpt>
      <trkpt lat="45.90089" lon="6.73533">
        <ele>1383</ele>
        <time>2000-01-01T06:41:31.000Z</time>
      </trkpt>
      <trkpt lat="45.90084" lon="6.73489">
        <ele>1376</ele>
        <time>2000-01-01T06:41:41.000Z</time>
      </trkpt>
      <trkpt lat="45.90069" lon="6.73451">
        <ele>1371</ele>
        <time>2000-01-01T06:41:51.000Z</time>
      </trkpt>
      <trkpt lat="45.9006" lon="6.73448">
        <ele>1370.7</ele>
        <time>2000-01-01T06:42:01.000Z</time>
      </trkpt>
      <trkpt lat="45.9005" lon="6.73475">
        <ele>1370</ele>
        <time>2000-01-01T06:42:11.000Z</time>
      </trkpt>
      <trkpt lat="45.90029" lon="6.73498">
        <ele>1369</ele>
        <time>2000-01-01T06:42:21.000Z</time>
      </trkpt>
      <trkpt lat="45.90019" lon="6.73522">
        <ele>1369</ele>
        <time>2000-01-01T06:42:31.000Z</time>
      </trkpt>
      <trkpt lat="45.90002" lon="6.73544">
        <ele>1369</ele>
        <time>2000-01-01T06:42:41.000Z</time>
      </trkpt>
      <trkpt lat="45.89988" lon="6.73556">
        <ele>1368.9</ele>
        <time>2000-01-01T06:42:51.000Z</time>
      </trkpt>
      <trkpt lat="45.89979" lon="6.73537">
        <ele>1363</ele>
        <time>2000-01-01T06:43:01.000Z</time>
      </trkpt>
      <trkpt lat="45.8999" lon="6.73508">
        <ele>1363</ele>
        <time>2000-01-01T06:43:11.000Z</time>
      </trkpt>
      <trkpt lat="45.89993" lon="6.73457">
        <ele>1359</ele>
        <time>2000-01-01T06:43:21.000Z</time>
      </trkpt>
      <trkpt lat="45.8999" lon="6.73404">
        <ele>1352</ele>
        <time>2000-01-01T06:43:31.000Z</time>
      </trkpt>
      <trkpt lat="45.89993" lon="6.73369">
        <ele>1345</ele>
        <time>2000-01-01T06:43:41.000Z</time>
      </trkpt>
      <trkpt lat="45.90017" lon="6.73322">
        <ele>1338</ele>
        <time>2000-01-01T06:43:51.000Z</time>
      </trkpt>
      <trkpt lat="45.90018" lon="6.7329">
        <ele>1335</ele>
        <time>2000-01-01T06:44:01.000Z</time>
      </trkpt>
      <trkpt lat="45.89983" lon="6.7331">
        <ele>1332</ele>
        <time>2000-01-01T06:44:11.000Z</time>
      </trkpt>
      <trkpt lat="45.8997" lon="6.733">
        <ele>1328.8</ele>
        <time>2000-01-01T06:44:21.000Z</time>
      </trkpt>
      <trkpt lat="45.8998" lon="6.73265">
        <ele>1321</ele>
        <time>2000-01-01T06:44:31.000Z</time>
      </trkpt>
      <trkpt lat="45.89996" lon="6.73239">
        <ele>1314</ele>
        <time>2000-01-01T06:44:41.000Z</time>
      </trkpt>
      <trkpt lat="45.90011" lon="6.73222">
        <ele>1310</ele>
        <time>2000-01-01T06:44:51.000Z</time>
      </trkpt>
      <trkpt lat="45.90005" lon="6.73193">
        <ele>1301</ele>
        <time>2000-01-01T06:45:01.000Z</time>
      </trkpt>
      <trkpt lat="45.89974" lon="6.73152">
        <ele>1295</ele>
        <time>2000-01-01T06:45:11.000Z</time>
      </trkpt>
      <trkpt lat="45.90004" lon="6.73111">
        <ele>1276</ele>
        <time>2000-01-01T06:45:21.000Z</time>
      </trkpt>
      <trkpt lat="45.90035" lon="6.73118">
        <ele>1265</ele>
        <time>2000-01-01T06:45:31.000Z</time>
      </trkpt>
      <trkpt lat="45.9006" lon="6.73127">
        <ele>1260</ele>
        <time>2000-01-01T06:45:41.000Z</time>
      </trkpt>
      <trkpt lat="45.9009" lon="6.73138">
        <ele>1251</ele>
        <time>2000-01-01T06:45:51.000Z</time>
      </trkpt>
      <trkpt lat="45.90135" lon="6.73147">
        <ele>1244</ele>
        <time>2000-01-01T06:46:01.000Z</time>
      </trkpt>
      <trkpt lat="45.90161" lon="6.73139">
        <ele>1236</ele>
        <time>2000-01-01T06:46:11.000Z</time>
      </trkpt>
      <trkpt lat="45.9017" lon="6.73105">
        <ele>1229</ele>
        <time>2000-01-01T06:46:21.000Z</time>
      </trkpt>
      <trkpt lat="45.9018" lon="6.73067">
        <ele>1221</ele>
        <time>2000-01-01T06:46:31.000Z</time>
      </trkpt>
      <trkpt lat="45.90175" lon="6.73036">
        <ele>1216</ele>
        <time>2000-01-01T06:46:41.000Z</time>
      </trkpt>
      <trkpt lat="45.9018" lon="6.72997">
        <ele>1210</ele>
        <time>2000-01-01T06:46:51.000Z</time>
      </trkpt>
      <trkpt lat="45.90187" lon="6.72944">
        <ele>1202</ele>
        <time>2000-01-01T06:47:01.000Z</time>
      </trkpt>
      <trkpt lat="45.90203" lon="6.72918">
        <ele>1198</ele>
        <time>2000-01-01T06:47:11.000Z</time>
      </trkpt>
      <trkpt lat="45.90221" lon="6.7289">
        <ele>1196</ele>
        <time>2000-01-01T06:47:21.000Z</time>
      </trkpt>
      <trkpt lat="45.90219" lon="6.72834">
        <ele>1186</ele>
        <time>2000-01-01T06:47:31.000Z</time>
      </trkpt>
      <trkpt lat="45.90235" lon="6.72799">
        <ele>1181</ele>
        <time>2000-01-01T06:47:41.000Z</time>
      </trkpt>
      <trkpt lat="45.90217" lon="6.72775">
        <ele>1179</ele>
        <time>2000-01-01T06:47:51.000Z</time>
      </trkpt>
      <trkpt lat="45.90188" lon="6.72782">
        <ele>1178</ele>
        <time>2000-01-01T06:48:01.000Z</time>
      </trkpt>
      <trkpt lat="45.90181" lon="6.7276">
        <ele>1174.2</ele>
        <time>2000-01-01T06:48:11.000Z</time>
      </trkpt>
      <trkpt lat="45.90153" lon="6.72751">
        <ele>1168</ele>
        <time>2000-01-01T06:48:21.000Z</time>
      </trkpt>
      <trkpt lat="45.90129" lon="6.72779">
        <ele>1173</ele>
        <time>2000-01-01T06:48:31.000Z</time>
      </trkpt>
      <trkpt lat="45.90083" lon="6.72834">
        <ele>1179</ele>
        <time>2000-01-01T06:48:41.000Z</time>
      </trkpt>
      <trkpt lat="45.90038" lon="6.72828">
        <ele>1179</ele>
        <time>2000-01-01T06:48:51.000Z</time>
      </trkpt>
      <trkpt lat="45.90042" lon="6.72784">
        <ele>1167</ele>
        <time>2000-01-01T06:49:01.000Z</time>
      </trkpt>
      <trkpt lat="45.90049" lon="6.72697">
        <ele>1160</ele>
        <time>2000-01-01T06:49:11.000Z</time>
      </trkpt>
      <trkpt lat="45.90026" lon="6.72725">
        <ele>1164</ele>
        <time>2000-01-01T06:49:21.000Z</time>
      </trkpt>
      <trkpt lat="45.89984" lon="6.72778">
        <ele>1163</ele>
        <time>2000-01-01T06:49:31.000Z</time>
      </trkpt>
      <trkpt lat="45.8996" lon="6.72761">
        <ele>1163</ele>
        <time>2000-01-01T06:49:41.000Z</time>
      </trkpt>
      <trkpt lat="45.89929" lon="6.72738">
        <ele>1140</ele>
        <time>2000-01-01T06:49:51.000Z</time>
      </trkpt>
      <trkpt lat="45.89895" lon="6.72749">
        <ele>1143</ele>
        <time>2000-01-01T06:50:01.000Z</time>
      </trkpt>
      <trkpt lat="45.89861" lon="6.7276">
        <ele>1146</ele>
        <time>2000-01-01T06:50:11.000Z</time>
      </trkpt>
      <trkpt lat="45.89793" lon="6.72782">
        <ele>1156</ele>
        <time>2000-01-01T06:50:21.000Z</time>
      </trkpt>
      <trkpt lat="45.89776" lon="6.72743">
        <ele>1155</ele>
        <time>2000-01-01T06:50:31.000Z</time>
      </trkpt>
      <trkpt lat="45.8979" lon="6.72714">
        <ele>1155</ele>
        <time>2000-01-01T06:50:41.000Z</time>
      </trkpt>
      <trkpt lat="45.89805" lon="6.72684">
        <ele>1152</ele>
        <time>2000-01-01T06:50:51.000Z</time>
      </trkpt>
      <trkpt lat="45.89796" lon="6.72645">
        <ele>1149</ele>
        <time>2000-01-01T06:51:01.000Z</time>
      </trkpt>
      <trkpt lat="45.89802" lon="6.72615">
        <ele>1147</ele>
        <time>2000-01-01T06:51:11.000Z</time>
      </trkpt>
      <trkpt lat="45.89777" lon="6.72582">
        <ele>1149</ele>
        <time>2000-01-01T06:51:21.000Z</time>
      </trkpt>
      <trkpt lat="45.89744" lon="6.7257">
        <ele>1147</ele>
        <time>2000-01-01T06:51:31.000Z</time>
      </trkpt>
      <trkpt lat="45.89742" lon="6.72529">
        <ele>1145</ele>
        <time>2000-01-01T06:51:41.000Z</time>
      </trkpt>
      <trkpt lat="45.89738" lon="6.72465">
        <ele>1145</ele>
        <time>2000-01-01T06:51:51.000Z</time>
      </trkpt>
      <trkpt lat="45.8975" lon="6.72434">
        <ele>1140</ele>
        <time>2000-01-01T06:52:01.000Z</time>
      </trkpt>
      <trkpt lat="45.89763" lon="6.724">
        <ele>1138</ele>
        <time>2000-01-01T06:52:11.000Z</time>
      </trkpt>
      <trkpt lat="45.89745" lon="6.7237">
        <ele>1136</ele>
        <time>2000-01-01T06:52:21.000Z</time>
      </trkpt>
      <trkpt lat="45.89721" lon="6.72329">
        <ele>1134</ele>
        <time>2000-01-01T06:52:31.000Z</time>
      </trkpt>
      <trkpt lat="45.89683" lon="6.72318">
        <ele>1133</ele>
        <time>2000-01-01T06:52:41.000Z</time>
      </trkpt>
      <trkpt lat="45.89665" lon="6.72291">
        <ele>1137</ele>
        <time>2000-01-01T06:52:51.000Z</time>
      </trkpt>
      <trkpt lat="45.89648" lon="6.72329">
        <ele>1141</ele>
        <time>2000-01-01T06:53:01.000Z</time>
      </trkpt>
      <trkpt lat="45.89631" lon="6.72367">
        <ele>1151</ele>
        <time>2000-01-01T06:53:11.000Z</time>
      </trkpt>
      <trkpt lat="45.89614" lon="6.72407">
        <ele>1163</ele>
        <time>2000-01-01T06:53:21.000Z</time>
      </trkpt>
      <trkpt lat="45.89636" lon="6.72441">
        <ele>1170</ele>
        <time>2000-01-01T06:53:31.000Z</time>
      </trkpt>
      <trkpt lat="45.89616" lon="6.72463">
        <ele>1179</ele>
        <time>2000-01-01T06:53:41.000Z</time>
      </trkpt>
      <trkpt lat="45.89594" lon="6.72489">
        <ele>1188</ele>
        <time>2000-01-01T06:53:51.000Z</time>
      </trkpt>
      <trkpt lat="45.89604" lon="6.72532">
        <ele>1195</ele>
        <time>2000-01-01T06:54:01.000Z</time>
      </trkpt>
      <trkpt lat="45.89615" lon="6.72575">
        <ele>1206</ele>
        <time>2000-01-01T06:54:11.000Z</time>
      </trkpt>
      <trkpt lat="45.89626" lon="6.7262">
        <ele>1219</ele>
        <time>2000-01-01T06:54:21.000Z</time>
      </trkpt>
      <trkpt lat="45.89599" lon="6.72623">
        <ele>1226</ele>
        <time>2000-01-01T06:54:31.000Z</time>
      </trkpt>
      <trkpt lat="45.89564" lon="6.72628">
        <ele>1232</ele>
        <time>2000-01-01T06:54:41.000Z</time>
      </trkpt>
      <trkpt lat="45.89537" lon="6.72648">
        <ele>1248</ele>
        <time>2000-01-01T06:54:51.000Z</time>
      </trkpt>
      <trkpt lat="45.89504" lon="6.72619">
        <ele>1248</ele>
        <time>2000-01-01T06:55:01.000Z</time>
      </trkpt>
      <trkpt lat="45.89478" lon="6.72612">
        <ele>1261</ele>
        <time>2000-01-01T06:55:11.000Z</time>
      </trkpt>
      <trkpt lat="45.89442" lon="6.72602">
        <ele>1272</ele>
        <time>2000-01-01T06:55:21.000Z</time>
      </trkpt>
      <trkpt lat="45.89452" lon="6.72634">
        <ele>1279</ele>
        <time>2000-01-01T06:55:31.000Z</time>
      </trkpt>
      <trkpt lat="45.89462" lon="6.72667">
        <ele>1286</ele>
        <time>2000-01-01T06:55:41.000Z</time>
      </trkpt>
      <trkpt lat="45.89479" lon="6.72704">
        <ele>1293</ele>
        <time>2000-01-01T06:55:51.000Z</time>
      </trkpt>
      <trkpt lat="45.89512" lon="6.72778">
        <ele>1298</ele>
        <time>2000-01-01T06:56:01.000Z</time>
      </trkpt>
      <trkpt lat="45.89529" lon="6.72803">
        <ele>1300</ele>
        <time>2000-01-01T06:56:11.000Z</time>
      </trkpt>
      <trkpt lat="45.89548" lon="6.72831">
        <ele>1303</ele>
        <time>2000-01-01T06:56:21.000Z</time>
      </trkpt>
      <trkpt lat="45.89515" lon="6.72821">
        <ele>1314</ele>
        <time>2000-01-01T06:56:31.000Z</time>
      </trkpt>
      <trkpt lat="45.89482" lon="6.7281">
        <ele>1322</ele>
        <time>2000-01-01T06:56:41.000Z</time>
      </trkpt>
      <trkpt lat="45.89429" lon="6.72794">
        <ele>1334</ele>
        <time>2000-01-01T06:56:51.000Z</time>
      </trkpt>
      <trkpt lat="45.8942" lon="6.72858">
        <ele>1348</ele>
        <time>2000-01-01T06:57:01.000Z</time>
      </trkpt>
      <trkpt lat="45.89391" lon="6.72854">
        <ele>1356</ele>
        <time>2000-01-01T06:57:11.000Z</time>
      </trkpt>
      <trkpt lat="45.89341" lon="6.72847">
        <ele>1361</ele>
        <time>2000-01-01T06:57:21.000Z</time>
      </trkpt>
      <trkpt lat="45.89317" lon="6.72871">
        <ele>1372</ele>
        <time>2000-01-01T06:57:31.000Z</time>
      </trkpt>
      <trkpt lat="45.89311" lon="6.72907">
        <ele>1381</ele>
        <time>2000-01-01T06:57:41.000Z</time>
      </trkpt>
      <trkpt lat="45.89287" lon="6.72913">
        <ele>1382</ele>
        <time>2000-01-01T06:57:51.000Z</time>
      </trkpt>
      <trkpt lat="45.8927" lon="6.72952">
        <ele>1387</ele>
        <time>2000-01-01T06:58:01.000Z</time>
      </trkpt>
      <trkpt lat="45.89245" lon="6.72949">
        <ele>1392</ele>
        <time>2000-01-01T06:58:11.000Z</time>
      </trkpt>
      <trkpt lat="45.89217" lon="6.72945">
        <ele>1396</ele>
        <time>2000-01-01T06:58:21.000Z</time>
      </trkpt>
      <trkpt lat="45.89189" lon="6.72939">
        <ele>1396</ele>
        <time>2000-01-01T06:58:31.000Z</time>
      </trkpt>
      <trkpt lat="45.89149" lon="6.72931">
        <ele>1398</ele>
        <time>2000-01-01T06:58:41.000Z</time>
      </trkpt>
      <trkpt lat="45.89185" lon="6.72954">
        <ele>1401</ele>
        <time>2000-01-01T06:58:51.000Z</time>
      </trkpt>
      <trkpt lat="45.89155" lon="6.72964">
        <ele>1407</ele>
        <time>2000-01-01T06:59:01.000Z</time>
      </trkpt>
      <trkpt lat="45.89101" lon="6.72983">
        <ele>1411</ele>
        <time>2000-01-01T06:59:11.000Z</time>
      </trkpt>
      <trkpt lat="45.89082" lon="6.73007">
        <ele>1417</ele>
        <time>2000-01-01T06:59:21.000Z</time>
      </trkpt>
      <trkpt lat="45.89054" lon="6.73013">
        <ele>1417</ele>
        <time>2000-01-01T06:59:31.000Z</time>
      </trkpt>
      <trkpt lat="45.89084" lon="6.73026">
        <ele>1424</ele>
        <time>2000-01-01T06:59:41.000Z</time>
      </trkpt>
      <trkpt lat="45.89115" lon="6.7304">
        <ele>1430</ele>
        <time>2000-01-01T06:59:51.000Z</time>
      </trkpt>
      <trkpt lat="45.89149" lon="6.73055">
        <ele>1440</ele>
        <time>2000-01-01T07:00:01.000Z</time>
      </trkpt>
      <trkpt lat="45.89184" lon="6.73087">
        <ele>1449</ele>
        <time>2000-01-01T07:00:11.000Z</time>
      </trkpt>
      <trkpt lat="45.8921" lon="6.73106">
        <ele>1452</ele>
        <time>2000-01-01T07:00:21.000Z</time>
      </trkpt>
      <trkpt lat="45.89252" lon="6.73138">
        <ele>1454</ele>
        <time>2000-01-01T07:00:31.000Z</time>
      </trkpt>
      <trkpt lat="45.89272" lon="6.73177">
        <ele>1461</ele>
        <time>2000-01-01T07:00:41.000Z</time>
      </trkpt>
      <trkpt lat="45.89291" lon="6.73215">
        <ele>1467</ele>
        <time>2000-01-01T07:00:51.000Z</time>
      </trkpt>
      <trkpt lat="45.8932" lon="6.73272">
        <ele>1471</ele>
        <time>2000-01-01T07:01:01.000Z</time>
      </trkpt>
      <trkpt lat="45.8934" lon="6.73304">
        <ele>1470</ele>
        <time>2000-01-01T07:01:11.000Z</time>
      </trkpt>
      <trkpt lat="45.89374" lon="6.73359">
        <ele>1470</ele>
        <time>2000-01-01T07:01:21.000Z</time>
      </trkpt>
      <trkpt lat="45.89345" lon="6.73349">
        <ele>1482</ele>
        <time>2000-01-01T07:01:31.000Z</time>
      </trkpt>
      <trkpt lat="45.89297" lon="6.73331">
        <ele>1497</ele>
        <time>2000-01-01T07:01:41.000Z</time>
      </trkpt>
      <trkpt lat="45.89272" lon="6.7331">
        <ele>1501</ele>
        <time>2000-01-01T07:01:51.000Z</time>
      </trkpt>
      <trkpt lat="45.8923" lon="6.73276">
        <ele>1504</ele>
        <time>2000-01-01T07:02:01.000Z</time>
      </trkpt>
      <trkpt lat="45.89202" lon="6.73279">
        <ele>1511</ele>
        <time>2000-01-01T07:02:11.000Z</time>
      </trkpt>
      <trkpt lat="45.89158" lon="6.73283">
        <ele>1522</ele>
        <time>2000-01-01T07:02:21.000Z</time>
      </trkpt>
      <trkpt lat="45.8913" lon="6.73307">
        <ele>1530</ele>
        <time>2000-01-01T07:02:31.000Z</time>
      </trkpt>
      <trkpt lat="45.89105" lon="6.73311">
        <ele>1535</ele>
        <time>2000-01-01T07:02:41.000Z</time>
      </trkpt>
      <trkpt lat="45.89078" lon="6.73316">
        <ele>1537</ele>
        <time>2000-01-01T07:02:51.000Z</time>
      </trkpt>
      <trkpt lat="45.89055" lon="6.73329">
        <ele>1539</ele>
        <time>2000-01-01T07:03:01.000Z</time>
      </trkpt>
      <trkpt lat="45.89028" lon="6.73344">
        <ele>1542</ele>
        <time>2000-01-01T07:03:11.000Z</time>
      </trkpt>
      <trkpt lat="45.89013" lon="6.73377">
        <ele>1546</ele>
        <time>2000-01-01T07:03:21.000Z</time>
      </trkpt>
      <trkpt lat="45.88991" lon="6.73423">
        <ele>1555</ele>
        <time>2000-01-01T07:03:31.000Z</time>
      </trkpt>
      <trkpt lat="45.89019" lon="6.73427">
        <ele>1558</ele>
        <time>2000-01-01T07:03:41.000Z</time>
      </trkpt>
      <trkpt lat="45.89061" lon="6.73433">
        <ele>1571</ele>
        <time>2000-01-01T07:03:51.000Z</time>
      </trkpt>
      <trkpt lat="45.89087" lon="6.73454">
        <ele>1582</ele>
        <time>2000-01-01T07:04:01.000Z</time>
      </trkpt>
      <trkpt lat="45.89111" lon="6.73467">
        <ele>1585</ele>
        <time>2000-01-01T07:04:11.000Z</time>
      </trkpt>
      <trkpt lat="45.8914" lon="6.73483">
        <ele>1587</ele>
        <time>2000-01-01T07:04:21.000Z</time>
      </trkpt>
      <trkpt lat="45.89144" lon="6.73528">
        <ele>1596</ele>
        <time>2000-01-01T07:04:31.000Z</time>
      </trkpt>
      <trkpt lat="45.89148" lon="6.73573">
        <ele>1605</ele>
        <time>2000-01-01T07:04:41.000Z</time>
      </trkpt>
      <trkpt lat="45.89152" lon="6.73622">
        <ele>1608</ele>
        <time>2000-01-01T07:04:51.000Z</time>
      </trkpt>
      <trkpt lat="45.89155" lon="6.73671">
        <ele>1614</ele>
        <time>2000-01-01T07:05:01.000Z</time>
      </trkpt>
      <trkpt lat="45.89157" lon="6.73721">
        <ele>1621</ele>
        <time>2000-01-01T07:05:11.000Z</time>
      </trkpt>
      <trkpt lat="45.89162" lon="6.7381">
        <ele>1631</ele>
        <time>2000-01-01T07:05:21.000Z</time>
      </trkpt>
      <trkpt lat="45.89164" lon="6.73871">
        <ele>1639</ele>
        <time>2000-01-01T07:05:31.000Z</time>
      </trkpt>
      <trkpt lat="45.89156" lon="6.73909">
        <ele>1645</ele>
        <time>2000-01-01T07:05:41.000Z</time>
      </trkpt>
      <trkpt lat="45.89158" lon="6.73954">
        <ele>1652</ele>
        <time>2000-01-01T07:05:51.000Z</time>
      </trkpt>
      <trkpt lat="45.89159" lon="6.73999">
        <ele>1657</ele>
        <time>2000-01-01T07:06:01.000Z</time>
      </trkpt>
      <trkpt lat="45.89161" lon="6.74046">
        <ele>1656</ele>
        <time>2000-01-01T07:06:11.000Z</time>
      </trkpt>
      <trkpt lat="45.89173" lon="6.74077">
        <ele>1656</ele>
        <time>2000-01-01T07:06:21.000Z</time>
      </trkpt>
      <trkpt lat="45.89188" lon="6.74114">
        <ele>1657</ele>
        <time>2000-01-01T07:06:31.000Z</time>
      </trkpt>
      <trkpt lat="45.89152" lon="6.74114">
        <ele>1665</ele>
        <time>2000-01-01T07:06:41.000Z</time>
      </trkpt>
      <trkpt lat="45.89129" lon="6.74101">
        <ele>1673</ele>
        <time>2000-01-01T07:06:51.000Z</time>
      </trkpt>
      <trkpt lat="45.89105" lon="6.74086">
        <ele>1678</ele>
        <time>2000-01-01T07:07:01.000Z</time>
      </trkpt>
      <trkpt lat="45.89099" lon="6.74131">
        <ele>1684</ele>
        <time>2000-01-01T07:07:11.000Z</time>
      </trkpt>
      <trkpt lat="45.89093" lon="6.74177">
        <ele>1688</ele>
        <time>2000-01-01T07:07:21.000Z</time>
      </trkpt>
      <trkpt lat="45.89086" lon="6.7423">
        <ele>1697</ele>
        <time>2000-01-01T07:07:31.000Z</time>
      </trkpt>
      <trkpt lat="45.89059" lon="6.74272">
        <ele>1710</ele>
        <time>2000-01-01T07:07:41.000Z</time>
      </trkpt>
      <trkpt lat="45.89049" lon="6.74333">
        <ele>1716</ele>
        <time>2000-01-01T07:07:51.000Z</time>
      </trkpt>
      <trkpt lat="45.89034" lon="6.74366">
        <ele>1718</ele>
        <time>2000-01-01T07:08:01.000Z</time>
      </trkpt>
      <trkpt lat="45.89014" lon="6.7441">
        <ele>1727</ele>
        <time>2000-01-01T07:08:11.000Z</time>
      </trkpt>
      <trkpt lat="45.88982" lon="6.74429">
        <ele>1735</ele>
        <time>2000-01-01T07:08:21.000Z</time>
      </trkpt>
      <trkpt lat="45.88949" lon="6.74416">
        <ele>1743</ele>
        <time>2000-01-01T07:08:31.000Z</time>
      </trkpt>
      <trkpt lat="45.88922" lon="6.74412">
        <ele>1745</ele>
        <time>2000-01-01T07:08:41.000Z</time>
      </trkpt>
      <trkpt lat="45.88884" lon="6.74406">
        <ele>1747</ele>
        <time>2000-01-01T07:08:51.000Z</time>
      </trkpt>
      <trkpt lat="45.88882" lon="6.74359">
        <ele>1747</ele>
        <time>2000-01-01T07:09:01.000Z</time>
      </trkpt>
      <trkpt lat="45.8888" lon="6.74312">
        <ele>1747</ele>
        <time>2000-01-01T07:09:11.000Z</time>
      </trkpt>
      <trkpt lat="45.88878" lon="6.74249">
        <ele>1747</ele>
        <time>2000-01-01T07:09:21.000Z</time>
      </trkpt>
      <trkpt lat="45.88867" lon="6.74214">
        <ele>1747</ele>
        <time>2000-01-01T07:09:31.000Z</time>
      </trkpt>
      <trkpt lat="45.88854" lon="6.74169">
        <ele>1745</ele>
        <time>2000-01-01T07:09:41.000Z</time>
      </trkpt>
      <trkpt lat="45.88829" lon="6.74127">
        <ele>1745</ele>
        <time>2000-01-01T07:09:51.000Z</time>
      </trkpt>
      <trkpt lat="45.88787" lon="6.741">
        <ele>1743</ele>
        <time>2000-01-01T07:10:01.000Z</time>
      </trkpt>
      <trkpt lat="45.88768" lon="6.74077">
        <ele>1737</ele>
        <time>2000-01-01T07:10:11.000Z</time>
      </trkpt>
      <trkpt lat="45.88746" lon="6.7405">
        <ele>1731</ele>
        <time>2000-01-01T07:10:21.000Z</time>
      </trkpt>
      <trkpt lat="45.88721" lon="6.74024">
        <ele>1726</ele>
        <time>2000-01-01T07:10:31.000Z</time>
      </trkpt>
      <trkpt lat="45.88677" lon="6.73978">
        <ele>1718</ele>
        <time>2000-01-01T07:10:41.000Z</time>
      </trkpt>
      <trkpt lat="45.88645" lon="6.7396">
        <ele>1717</ele>
        <time>2000-01-01T07:10:51.000Z</time>
      </trkpt>
      <trkpt lat="45.88613" lon="6.73943">
        <ele>1711</ele>
        <time>2000-01-01T07:11:01.000Z</time>
      </trkpt>
      <trkpt lat="45.88556" lon="6.73912">
        <ele>1706</ele>
        <time>2000-01-01T07:11:11.000Z</time>
      </trkpt>
      <trkpt lat="45.88533" lon="6.73885">
        <ele>1702</ele>
        <time>2000-01-01T07:11:21.000Z</time>
      </trkpt>
      <trkpt lat="45.88494" lon="6.7384">
        <ele>1698</ele>
        <time>2000-01-01T07:11:31.000Z</time>
      </trkpt>
      <trkpt lat="45.88483" lon="6.7381">
        <ele>1684</ele>
        <time>2000-01-01T07:11:41.000Z</time>
      </trkpt>
      <trkpt lat="45.88471" lon="6.73778">
        <ele>1683</ele>
        <time>2000-01-01T07:11:51.000Z</time>
      </trkpt>
      <trkpt lat="45.88447" lon="6.73781">
        <ele>1682</ele>
        <time>2000-01-01T07:12:01.000Z</time>
      </trkpt>
      <trkpt lat="45.88468" lon="6.73737">
        <ele>1659</ele>
        <time>2000-01-01T07:12:11.000Z</time>
      </trkpt>
      <trkpt lat="45.8844" lon="6.73712">
        <ele>1652</ele>
        <time>2000-01-01T07:12:21.000Z</time>
      </trkpt>
      <trkpt lat="45.88464" lon="6.73683">
        <ele>1637</ele>
        <time>2000-01-01T07:12:31.000Z</time>
      </trkpt>
      <trkpt lat="45.88432" lon="6.73664">
        <ele>1632</ele>
        <time>2000-01-01T07:12:41.000Z</time>
      </trkpt>
      <trkpt lat="45.88459" lon="6.73636">
        <ele>1613</ele>
        <time>2000-01-01T07:12:51.000Z</time>
      </trkpt>
      <trkpt lat="45.88434" lon="6.73621">
        <ele>1608</ele>
        <time>2000-01-01T07:13:01.000Z</time>
      </trkpt>
      <trkpt lat="45.88402" lon="6.73601">
        <ele>1604</ele>
        <time>2000-01-01T07:13:11.000Z</time>
      </trkpt>
      <trkpt lat="45.88422" lon="6.73583">
        <ele>1592</ele>
        <time>2000-01-01T07:13:21.000Z</time>
      </trkpt>
      <trkpt lat="45.88447" lon="6.7358">
        <ele>1587</ele>
        <time>2000-01-01T07:13:31.000Z</time>
      </trkpt>
      <trkpt lat="45.88476" lon="6.73576">
        <ele>1585</ele>
        <time>2000-01-01T07:13:41.000Z</time>
      </trkpt>
      <trkpt lat="45.88451" lon="6.73554">
        <ele>1581</ele>
        <time>2000-01-01T07:13:51.000Z</time>
      </trkpt>
      <trkpt lat="45.88447" lon="6.73523">
        <ele>1573</ele>
        <time>2000-01-01T07:14:01.000Z</time>
      </trkpt>
      <trkpt lat="45.88411" lon="6.73498">
        <ele>1569</ele>
        <time>2000-01-01T07:14:11.000Z</time>
      </trkpt>
      <trkpt lat="45.88391" lon="6.73454">
        <ele>1558</ele>
        <time>2000-01-01T07:14:21.000Z</time>
      </trkpt>
      <trkpt lat="45.88366" lon="6.73441">
        <ele>1553</ele>
        <time>2000-01-01T07:14:31.000Z</time>
      </trkpt>
      <trkpt lat="45.88334" lon="6.73425">
        <ele>1549</ele>
        <time>2000-01-01T07:14:41.000Z</time>
      </trkpt>
      <trkpt lat="45.88355" lon="6.73406">
        <ele>1544</ele>
        <time>2000-01-01T07:14:51.000Z</time>
      </trkpt>
      <trkpt lat="45.88377" lon="6.73386">
        <ele>1540</ele>
        <time>2000-01-01T07:15:01.000Z</time>
      </trkpt>
      <trkpt lat="45.88397" lon="6.73336">
        <ele>1530</ele>
        <time>2000-01-01T07:15:11.000Z</time>
      </trkpt>
      <trkpt lat="45.88394" lon="6.73302">
        <ele>1523</ele>
        <time>2000-01-01T07:15:21.000Z</time>
      </trkpt>
      <trkpt lat="45.88391" lon="6.73269">
        <ele>1514</ele>
        <time>2000-01-01T07:15:31.000Z</time>
      </trkpt>
      <trkpt lat="45.88398" lon="6.73233">
        <ele>1509</ele>
        <time>2000-01-01T07:15:41.000Z</time>
      </trkpt>
      <trkpt lat="45.88406" lon="6.73189">
        <ele>1501</ele>
        <time>2000-01-01T07:15:51.000Z</time>
      </trkpt>
      <trkpt lat="45.88383" lon="6.73173">
        <ele>1497</ele>
        <time>2000-01-01T07:16:01.000Z</time>
      </trkpt>
      <trkpt lat="45.88354" lon="6.73154">
        <ele>1490</ele>
        <time>2000-01-01T07:16:11.000Z</time>
      </trkpt>
      <trkpt lat="45.88362" lon="6.7313">
        <ele>1486.9</ele>
        <time>2000-01-01T07:16:21.000Z</time>
      </trkpt>
      <trkpt lat="45.8833" lon="6.73124">
        <ele>1478</ele>
        <time>2000-01-01T07:16:31.000Z</time>
      </trkpt>
      <trkpt lat="45.88328" lon="6.731">
        <ele>1474.2</ele>
        <time>2000-01-01T07:16:41.000Z</time>
      </trkpt>
      <trkpt lat="45.88308" lon="6.73108">
        <ele>1469</ele>
        <time>2000-01-01T07:16:51.000Z</time>
      </trkpt>
      <trkpt lat="45.88282" lon="6.73092">
        <ele>1463</ele>
        <time>2000-01-01T07:17:01.000Z</time>
      </trkpt>
      <trkpt lat="45.88289" lon="6.73047">
        <ele>1452</ele>
        <time>2000-01-01T07:17:11.000Z</time>
      </trkpt>
      <trkpt lat="45.88267" lon="6.73033">
        <ele>1447</ele>
        <time>2000-01-01T07:17:21.000Z</time>
      </trkpt>
      <trkpt lat="45.88244" lon="6.73019">
        <ele>1438</ele>
        <time>2000-01-01T07:17:31.000Z</time>
      </trkpt>
      <trkpt lat="45.88217" lon="6.73018">
        <ele>1433</ele>
        <time>2000-01-01T07:17:41.000Z</time>
      </trkpt>
      <trkpt lat="45.88178" lon="6.73017">
        <ele>1429</ele>
        <time>2000-01-01T07:17:51.000Z</time>
      </trkpt>
      <trkpt lat="45.88152" lon="6.72994">
        <ele>1423</ele>
        <time>2000-01-01T07:18:01.000Z</time>
      </trkpt>
      <trkpt lat="45.88102" lon="6.72951">
        <ele>1402</ele>
        <time>2000-01-01T07:18:11.000Z</time>
      </trkpt>
      <trkpt lat="45.88113" lon="6.72921">
        <ele>1395</ele>
        <time>2000-01-01T07:18:21.000Z</time>
      </trkpt>
      <trkpt lat="45.88124" lon="6.7289">
        <ele>1390</ele>
        <time>2000-01-01T07:18:31.000Z</time>
      </trkpt>
      <trkpt lat="45.88103" lon="6.72906">
        <ele>1389</ele>
        <time>2000-01-01T07:18:41.000Z</time>
      </trkpt>
      <trkpt lat="45.88081" lon="6.72922">
        <ele>1388</ele>
        <time>2000-01-01T07:18:51.000Z</time>
      </trkpt>
      <trkpt lat="45.88046" lon="6.72941">
        <ele>1384</ele>
        <time>2000-01-01T07:19:01.000Z</time>
      </trkpt>
      <trkpt lat="45.88016" lon="6.72969">
        <ele>1382</ele>
        <time>2000-01-01T07:19:11.000Z</time>
      </trkpt>
      <trkpt lat="45.87984" lon="6.72957">
        <ele>1373</ele>
        <time>2000-01-01T07:19:21.000Z</time>
      </trkpt>
      <trkpt lat="45.87952" lon="6.72945">
        <ele>1367</ele>
        <time>2000-01-01T07:19:31.000Z</time>
      </trkpt>
      <trkpt lat="45.87906" lon="6.72928">
        <ele>1352</ele>
        <time>2000-01-01T07:19:41.000Z</time>
      </trkpt>
      <trkpt lat="45.8787" lon="6.72926">
        <ele>1343</ele>
        <time>2000-01-01T07:19:51.000Z</time>
      </trkpt>
      <trkpt lat="45.87833" lon="6.72923">
        <ele>1335</ele>
        <time>2000-01-01T07:20:01.000Z</time>
      </trkpt>
      <trkpt lat="45.87797" lon="6.72921">
        <ele>1324</ele>
        <time>2000-01-01T07:20:11.000Z</time>
      </trkpt>
      <trkpt lat="45.87745" lon="6.72918">
        <ele>1308</ele>
        <time>2000-01-01T07:20:21.000Z</time>
      </trkpt>
      <trkpt lat="45.87705" lon="6.72931">
        <ele>1308</ele>
        <time>2000-01-01T07:20:31.000Z</time>
      </trkpt>
      <trkpt lat="45.87727" lon="6.72908">
        <ele>1302</ele>
        <time>2000-01-01T07:20:41.000Z</time>
      </trkpt>
      <trkpt lat="45.87756" lon="6.72878">
        <ele>1300</ele>
        <time>2000-01-01T07:20:51.000Z</time>
      </trkpt>
      <trkpt lat="45.87791" lon="6.72861">
        <ele>1300</ele>
        <time>2000-01-01T07:21:01.000Z</time>
      </trkpt>
      <trkpt lat="45.87826" lon="6.72845">
        <ele>1300</ele>
        <time>2000-01-01T07:21:11.000Z</time>
      </trkpt>
      <trkpt lat="45.87861" lon="6.72828">
        <ele>1302</ele>
        <time>2000-01-01T07:21:21.000Z</time>
      </trkpt>
      <trkpt lat="45.87918" lon="6.72801">
        <ele>1301</ele>
        <time>2000-01-01T07:21:31.000Z</time>
      </trkpt>
      <trkpt lat="45.87944" lon="6.72776">
        <ele>1301</ele>
        <time>2000-01-01T07:21:41.000Z</time>
      </trkpt>
      <trkpt lat="45.8797" lon="6.7275">
        <ele>1302</ele>
        <time>2000-01-01T07:21:51.000Z</time>
      </trkpt>
      <trkpt lat="45.87996" lon="6.72725">
        <ele>1302</ele>
        <time>2000-01-01T07:22:01.000Z</time>
      </trkpt>
      <trkpt lat="45.88006" lon="6.72677">
        <ele>1286</ele>
        <time>2000-01-01T07:22:11.000Z</time>
      </trkpt>
      <trkpt lat="45.88034" lon="6.72648">
        <ele>1284</ele>
        <time>2000-01-01T07:22:21.000Z</time>
      </trkpt>
      <trkpt lat="45.88062" lon="6.72618">
        <ele>1280</ele>
        <time>2000-01-01T07:22:31.000Z</time>
      </trkpt>
      <trkpt lat="45.88115" lon="6.72563">
        <ele>1267</ele>
        <time>2000-01-01T07:22:41.000Z</time>
      </trkpt>
      <trkpt lat="45.88086" lon="6.72576">
        <ele>1265</ele>
        <time>2000-01-01T07:22:51.000Z</time>
      </trkpt>
      <trkpt lat="45.88029" lon="6.72601">
        <ele>1262</ele>
        <time>2000-01-01T07:23:01.000Z</time>
      </trkpt>
      <trkpt lat="45.8805" lon="6.72575">
        <ele>1257</ele>
        <time>2000-01-01T07:23:11.000Z</time>
      </trkpt>
      <trkpt lat="45.88081" lon="6.72537">
        <ele>1240</ele>
        <time>2000-01-01T07:23:21.000Z</time>
      </trkpt>
      <trkpt lat="45.88085" lon="6.72507">
        <ele>1234</ele>
        <time>2000-01-01T07:23:31.000Z</time>
      </trkpt>
      <trkpt lat="45.88118" lon="6.72494">
        <ele>1228</ele>
        <time>2000-01-01T07:23:41.000Z</time>
      </trkpt>
      <trkpt lat="45.8815" lon="6.72463">
        <ele>1226</ele>
        <time>2000-01-01T07:23:51.000Z</time>
      </trkpt>
      <trkpt lat="45.88182" lon="6.72432">
        <ele>1220</ele>
        <time>2000-01-01T07:24:01.000Z</time>
      </trkpt>
      <trkpt lat="45.88215" lon="6.72402">
        <ele>1210</ele>
        <time>2000-01-01T07:24:11.000Z</time>
      </trkpt>
      <trkpt lat="45.88247" lon="6.72371">
        <ele>1199</ele>
        <time>2000-01-01T07:24:21.000Z</time>
      </trkpt>
      <trkpt lat="45.88302" lon="6.72318">
        <ele>1185</ele>
        <time>2000-01-01T07:24:31.000Z</time>
      </trkpt>
      <trkpt lat="45.88335" lon="6.72292">
        <ele>1180</ele>
        <time>2000-01-01T07:24:41.000Z</time>
      </trkpt>
      <trkpt lat="45.88367" lon="6.72265">
        <ele>1166</ele>
        <time>2000-01-01T07:24:51.000Z</time>
      </trkpt>
      <trkpt lat="45.884" lon="6.72239">
        <ele>1151</ele>
        <time>2000-01-01T07:25:01.000Z</time>
      </trkpt>
      <trkpt lat="45.88433" lon="6.72212">
        <ele>1145</ele>
        <time>2000-01-01T07:25:11.000Z</time>
      </trkpt>
      <trkpt lat="45.88467" lon="6.72185">
        <ele>1133</ele>
        <time>2000-01-01T07:25:21.000Z</time>
      </trkpt>
      <trkpt lat="45.88503" lon="6.72179">
        <ele>1127</ele>
        <time>2000-01-01T07:25:31.000Z</time>
      </trkpt>
      <trkpt lat="45.8854" lon="6.72173">
        <ele>1126</ele>
        <time>2000-01-01T07:25:41.000Z</time>
      </trkpt>
      <trkpt lat="45.88576" lon="6.72167">
        <ele>1118</ele>
        <time>2000-01-01T07:25:51.000Z</time>
      </trkpt>
      <trkpt lat="45.88633" lon="6.72158">
        <ele>1110</ele>
        <time>2000-01-01T07:26:01.000Z</time>
      </trkpt>
      <trkpt lat="45.88624" lon="6.7213">
        <ele>1100</ele>
        <time>2000-01-01T07:26:11.000Z</time>
      </trkpt>
      <trkpt lat="45.88601" lon="6.72111">
        <ele>1088</ele>
        <time>2000-01-01T07:26:21.000Z</time>
      </trkpt>
      <trkpt lat="45.88635" lon="6.72088">
        <ele>1081</ele>
        <time>2000-01-01T07:26:31.000Z</time>
      </trkpt>
      <trkpt lat="45.88664" lon="6.72091">
        <ele>1075</ele>
        <time>2000-01-01T07:26:41.000Z</time>
      </trkpt>
      <trkpt lat="45.88714" lon="6.72095">
        <ele>1072</ele>
        <time>2000-01-01T07:26:51.000Z</time>
      </trkpt>
      <trkpt lat="45.88742" lon="6.72084">
        <ele>1065</ele>
        <time>2000-01-01T07:27:01.000Z</time>
      </trkpt>
      <trkpt lat="45.8879" lon="6.72065">
        <ele>1050</ele>
        <time>2000-01-01T07:27:11.000Z</time>
      </trkpt>
      <trkpt lat="45.88772" lon="6.72048">
        <ele>1039</ele>
        <time>2000-01-01T07:27:21.000Z</time>
      </trkpt>
      <trkpt lat="45.88752" lon="6.72038">
        <ele>1035</ele>
        <time>2000-01-01T07:27:31.000Z</time>
      </trkpt>
      <trkpt lat="45.88773" lon="6.72019">
        <ele>1021</ele>
        <time>2000-01-01T07:27:41.000Z</time>
      </trkpt>
      <trkpt lat="45.88796" lon="6.71997">
        <ele>1018</ele>
        <time>2000-01-01T07:27:51.000Z</time>
      </trkpt>
      <trkpt lat="45.88824" lon="6.72004">
        <ele>1016</ele>
        <time>2000-01-01T07:28:01.000Z</time>
      </trkpt>
      <trkpt lat="45.88844" lon="6.71959">
        <ele>991</ele>
        <time>2000-01-01T07:28:11.000Z</time>
      </trkpt>
      <trkpt lat="45.8885" lon="6.71918">
        <ele>974</ele>
        <time>2000-01-01T07:28:21.000Z</time>
      </trkpt>
      <trkpt lat="45.88834" lon="6.71918">
        <ele>977.6</ele>
        <time>2000-01-01T07:28:31.000Z</time>
      </trkpt>
      <trkpt lat="45.88839" lon="6.71851">
        <ele>951</ele>
        <time>2000-01-01T07:28:41.000Z</time>
      </trkpt>
      <trkpt lat="45.88823" lon="6.71815">
        <ele>939</ele>
        <time>2000-01-01T07:28:51.000Z</time>
      </trkpt>
      <trkpt lat="45.8882" lon="6.71766">
        <ele>924</ele>
        <time>2000-01-01T07:29:01.000Z</time>
      </trkpt>
      <trkpt lat="45.888" lon="6.71744">
        <ele>916</ele>
        <time>2000-01-01T07:29:11.000Z</time>
      </trkpt>
      <trkpt lat="45.88778" lon="6.71719">
        <ele>900</ele>
        <time>2000-01-01T07:29:21.000Z</time>
      </trkpt>
      <trkpt lat="45.8876" lon="6.71687">
        <ele>890</ele>
        <time>2000-01-01T07:29:31.000Z</time>
      </trkpt>
      <trkpt lat="45.88741" lon="6.71675">
        <ele>887</ele>
        <time>2000-01-01T07:29:41.000Z</time>
      </trkpt>
      <trkpt lat="45.88727" lon="6.71619">
        <ele>873</ele>
        <time>2000-01-01T07:29:51.000Z</time>
      </trkpt>
      <trkpt lat="45.88707" lon="6.71575">
        <ele>864</ele>
        <time>2000-01-01T07:30:01.000Z</time>
      </trkpt>
      <trkpt lat="45.88703" lon="6.71532">
        <ele>857</ele>
        <time>2000-01-01T07:30:11.000Z</time>
      </trkpt>
      <trkpt lat="45.88696" lon="6.71455">
        <ele>850</ele>
        <time>2000-01-01T07:30:21.000Z</time>
      </trkpt>
    </trkseg>
  </trk>
</gpx>